<?xml version='1.0' encoding='UTF-8'?><gpx version="1.1" creator="JPX - https://github.com/jenetics/jpx" xmlns="http://www.topografix.com/GPX/1/1"><trk><trkseg><trkpt lat="41.9940456" lon="13.8062541"><ele>507.0</ele><time>2026-05-03T08:12:15.259Z</time></trkpt><trkpt lat="41.9941113" lon="13.8062697"><ele>507.0</ele><time>2026-05-03T08:13:39.264Z</time></trkpt><trkpt lat="41.9940917" lon="13.8063597"><ele>507.0</ele><time>2026-05-03T08:14:25.259Z</time></trkpt><trkpt lat="41.9940803" lon="13.8062693"><ele>507.0</ele><time>2026-05-03T08:17:31.26Z</time></trkpt><trkpt lat="41.994016" lon="13.8062584"><ele>507.0</ele><time>2026-05-03T08:17:38.258Z</time></trkpt><trkpt lat="41.9939433" lon="13.8062526"><ele>507.0</ele><time>2026-05-03T08:17:44.259Z</time></trkpt><trkpt lat="41.9938793" lon="13.8062582"><ele>507.0</ele><time>2026-05-03T08:17:50.261Z</time></trkpt><trkpt lat="41.9938259" lon="13.8061992"><ele>507.0</ele><time>2026-05-03T08:18:55.261Z</time></trkpt><trkpt lat="41.9937615" lon="13.8061785"><ele>507.0</ele><time>2026-05-03T08:19:01.26Z</time></trkpt><trkpt lat="41.9937033" lon="13.8061402"><ele>507.0</ele><time>2026-05-03T08:19:09.214Z</time></trkpt><trkpt lat="41.9936363" lon="13.8061708"><ele>507.0</ele><time>2026-05-03T08:19:16.291Z</time></trkpt><trkpt lat="41.9935706" lon="13.8061655"><ele>507.0</ele><time>2026-05-03T08:19:23.264Z</time></trkpt><trkpt lat="41.9935123" lon="13.8061226"><ele>507.0</ele><time>2026-05-03T08:19:30.234Z</time></trkpt><trkpt lat="41.9934482" lon="13.8061009"><ele>507.0</ele><time>2026-05-03T08:19:37.263Z</time></trkpt><trkpt lat="41.9929349" lon="13.8058395"><ele>508.8</ele><time>2026-05-03T08:20:43.009Z</time></trkpt><trkpt lat="41.9928204" lon="13.8057373"><ele>510.6</ele><time>2026-05-03T08:21:00.258Z</time></trkpt><trkpt lat="41.9927623" lon="13.805687"><ele>512.4000000000001</ele><time>2026-05-03T08:21:05.271Z</time></trkpt><trkpt lat="41.9926501" lon="13.8055801"><ele>514.2</ele><time>2026-05-03T08:21:17.266Z</time></trkpt><trkpt lat="41.9925948" lon="13.8055217"><ele>516.0</ele><time>2026-05-03T08:21:21.271Z</time></trkpt><trkpt lat="41.9925323" lon="13.8054882"><ele>514.8</ele><time>2026-05-03T08:21:25.296Z</time></trkpt><trkpt lat="41.9924611" lon="13.8054719"><ele>513.6</ele><time>2026-05-03T08:21:30.261Z</time></trkpt><trkpt lat="41.9923332" lon="13.8054189"><ele>512.4</ele><time>2026-05-03T08:21:42.266Z</time></trkpt><trkpt lat="41.9922654" lon="13.8054379"><ele>511.2</ele><time>2026-05-03T08:21:49.263Z</time></trkpt><trkpt lat="41.9922167" lon="13.8055207"><ele>510.0</ele><time>2026-05-03T08:22:10.226Z</time></trkpt><trkpt lat="41.9921055" lon="13.8055164"><ele>510.0</ele><time>2026-05-03T08:22:23.207Z</time></trkpt><trkpt lat="41.9920602" lon="13.8054478"><ele>510.0</ele><time>2026-05-03T08:22:30.326Z</time></trkpt><trkpt lat="41.9919946" lon="13.8054669"><ele>510.0</ele><time>2026-05-03T08:22:38.247Z</time></trkpt></trkseg><trkseg><trkpt lat="41.9916864" lon="13.8070594"><ele>519.0</ele><time>2026-05-03T08:33:46.207Z</time></trkpt><trkpt lat="41.9917192" lon="13.807146"><ele>519.0</ele><time>2026-05-03T08:34:09.258Z</time></trkpt><trkpt lat="41.9917157" lon="13.8072325"><ele>519.0</ele><time>2026-05-03T08:34:16.21Z</time></trkpt><trkpt lat="41.9917449" lon="13.8073177"><ele>519.0</ele><time>2026-05-03T08:37:09.189Z</time></trkpt><trkpt lat="41.9917815" lon="13.8073914"><ele>519.0</ele><time>2026-05-03T08:37:15.258Z</time></trkpt><trkpt lat="41.9917669" lon="13.8074779"><ele>519.0</ele><time>2026-05-03T08:37:23.266Z</time></trkpt><trkpt lat="41.9918033" lon="13.807556"><ele>519.0</ele><time>2026-05-03T08:40:30.255Z</time></trkpt><trkpt lat="41.9918274" lon="13.80764"><ele>520.8571428571429</ele><time>2026-05-03T08:40:36.258Z</time></trkpt><trkpt lat="41.9918607" lon="13.8077137"><ele>522.7142857142857</ele><time>2026-05-03T08:40:42.272Z</time></trkpt><trkpt lat="41.9919042" lon="13.8077781"><ele>524.5714285714286</ele><time>2026-05-03T08:40:51.257Z</time></trkpt><trkpt lat="41.9919572" lon="13.8078335"><ele>526.4285714285714</ele><time>2026-05-03T08:41:10.259Z</time></trkpt><trkpt lat="41.9920015" lon="13.8079063"><ele>528.2857142857142</ele><time>2026-05-03T08:41:17.282Z</time></trkpt><trkpt lat="41.9919882" lon="13.8080004"><ele>530.1428571428571</ele><time>2026-05-03T08:41:24.26Z</time></trkpt><trkpt lat="41.991967" lon="13.8080838"><ele>532.0</ele><time>2026-05-03T08:41:31.166Z</time></trkpt><trkpt lat="41.9919834" lon="13.8081688"><ele>532.0</ele><time>2026-05-03T08:41:40.32Z</time></trkpt><trkpt lat="41.9920078" lon="13.8082562"><ele>532.0</ele><time>2026-05-03T08:41:51.286Z</time></trkpt><trkpt lat="41.9920515" lon="13.8083229"><ele>532.0</ele><time>2026-05-03T08:41:57.26Z</time></trkpt><trkpt lat="41.9920725" lon="13.8084042"><ele>532.0</ele><time>2026-05-03T08:42:02.26Z</time></trkpt><trkpt lat="41.9921169" lon="13.8084736"><ele>532.0</ele><time>2026-05-03T08:42:10.259Z</time></trkpt><trkpt lat="41.9921894" lon="13.8084946"><ele>532.0</ele><time>2026-05-03T08:42:15.261Z</time></trkpt><trkpt lat="41.9922398" lon="13.80855"><ele>532.0</ele><time>2026-05-03T08:42:21.266Z</time></trkpt><trkpt lat="41.992269" lon="13.808633"><ele>534.2857142857143</ele><time>2026-05-03T08:42:29.329Z</time></trkpt><trkpt lat="41.9922728" lon="13.8087284"><ele>536.5714285714286</ele><time>2026-05-03T08:42:37.262Z</time></trkpt><trkpt lat="41.992326" lon="13.8087955"><ele>538.8571428571429</ele><time>2026-05-03T08:44:29.26Z</time></trkpt><trkpt lat="41.992354" lon="13.8088815"><ele>541.1428571428571</ele><time>2026-05-03T08:44:37.261Z</time></trkpt><trkpt lat="41.9924223" lon="13.8089179"><ele>543.4285714285714</ele><time>2026-05-03T08:44:45.269Z</time></trkpt><trkpt lat="41.9924761" lon="13.8089647"><ele>545.7142857142858</ele><time>2026-05-03T08:44:50.307Z</time></trkpt><trkpt lat="41.9925341" lon="13.8090001"><ele>548.0</ele><time>2026-05-03T08:44:55.259Z</time></trkpt><trkpt lat="41.9926003" lon="13.8090177"><ele>548.0000000000001</ele><time>2026-05-03T08:45:08.307Z</time></trkpt><trkpt lat="41.9926494" lon="13.8090829"><ele>548.0</ele><time>2026-05-03T08:45:15.224Z</time></trkpt><trkpt lat="41.9926911" lon="13.8091522"><ele>548.0</ele><time>2026-05-03T08:45:25.284Z</time></trkpt><trkpt lat="41.9927563" lon="13.8091581"><ele>548.0</ele><time>2026-05-03T08:45:32.259Z</time></trkpt><trkpt lat="41.9928208" lon="13.8091631"><ele>548.0</ele><time>2026-05-03T08:45:40.298Z</time></trkpt><trkpt lat="41.9928845" lon="13.8091909"><ele>548.0000000000001</ele><time>2026-05-03T08:45:49.256Z</time></trkpt><trkpt lat="41.9928698" lon="13.8092734"><ele>548.0</ele><time>2026-05-03T08:46:07.26Z</time></trkpt><trkpt lat="41.9928099" lon="13.809301"><ele>548.0000000000001</ele><time>2026-05-03T08:46:53.26Z</time></trkpt><trkpt lat="41.9927456" lon="13.8093117"><ele>548.0</ele><time>2026-05-03T08:47:05.259Z</time></trkpt><trkpt lat="41.9926831" lon="13.8093272"><ele>548.0</ele><time>2026-05-03T08:47:23.262Z</time></trkpt><trkpt lat="41.9926316" lon="13.809386"><ele>548.0</ele><time>2026-05-03T08:47:59.26Z</time></trkpt><trkpt lat="41.9926634" lon="13.8094994"><ele>548.0</ele><time>2026-05-03T08:48:24.187Z</time></trkpt><trkpt lat="41.9926115" lon="13.8095475"><ele>548.0000000000001</ele><time>2026-05-03T08:49:06.256Z</time></trkpt><trkpt lat="41.9925455" lon="13.809562"><ele>548.0</ele><time>2026-05-03T08:49:15.26Z</time></trkpt><trkpt lat="41.9924919" lon="13.8096162"><ele>550.8571428571429</ele><time>2026-05-03T08:50:02.257Z</time></trkpt><trkpt lat="41.9925289" lon="13.8096917"><ele>553.7142857142858</ele><time>2026-05-03T08:50:10.267Z</time></trkpt><trkpt lat="41.9925908" lon="13.8097128"><ele>556.5714285714286</ele><time>2026-05-03T08:50:16.254Z</time></trkpt><trkpt lat="41.9925493" lon="13.8097795"><ele>559.4285714285714</ele><time>2026-05-03T08:50:38.269Z</time></trkpt><trkpt lat="41.9924818" lon="13.8098096"><ele>562.2857142857142</ele><time>2026-05-03T08:50:45.286Z</time></trkpt><trkpt lat="41.9924185" lon="13.8097747"><ele>565.1428571428571</ele><time>2026-05-03T08:51:03.255Z</time></trkpt><trkpt lat="41.9923449" lon="13.8097769"><ele>568.0</ele><time>2026-05-03T08:51:20.318Z</time></trkpt><trkpt lat="41.9922812" lon="13.8097568"><ele>571.0</ele><time>2026-05-03T08:51:32.289Z</time></trkpt><trkpt lat="41.9922209" lon="13.8097318"><ele>574.0</ele><time>2026-05-03T08:51:42.255Z</time></trkpt><trkpt lat="41.9921813" lon="13.8098091"><ele>577.0</ele><time>2026-05-03T08:51:49.243Z</time></trkpt><trkpt lat="41.9921544" lon="13.809895"><ele>580.0</ele><time>2026-05-03T08:51:59.26Z</time></trkpt><trkpt lat="41.9921268" lon="13.809977"><ele>583.0</ele><time>2026-05-03T08:52:07.305Z</time></trkpt><trkpt lat="41.9921129" lon="13.8100643"><ele>586.0</ele><time>2026-05-03T08:52:23.291Z</time></trkpt><trkpt lat="41.9920523" lon="13.8100895"><ele>589.0</ele><time>2026-05-03T08:52:41.296Z</time></trkpt><trkpt lat="41.9920186" lon="13.8101696"><ele>592.4285714285714</ele><time>2026-05-03T08:52:47.309Z</time></trkpt><trkpt lat="41.9919637" lon="13.8102119"><ele>595.8571428571428</ele><time>2026-05-03T08:52:54.274Z</time></trkpt><trkpt lat="41.9919121" lon="13.8102756"><ele>599.2857142857142</ele><time>2026-05-03T08:53:07.185Z</time></trkpt><trkpt lat="41.9918767" lon="13.8103458"><ele>602.7142857142857</ele><time>2026-05-03T08:53:20.202Z</time></trkpt><trkpt lat="41.9918258" lon="13.8104053"><ele>606.1428571428571</ele><time>2026-05-03T08:55:55.298Z</time></trkpt><trkpt lat="41.991764" lon="13.8104429"><ele>609.5714285714286</ele><time>2026-05-03T08:56:07.268Z</time></trkpt><trkpt lat="41.9916994" lon="13.8104419"><ele>613.0</ele><time>2026-05-03T08:56:23.274Z</time></trkpt><trkpt lat="41.9916599" lon="13.8105113"><ele>615.2857142857143</ele><time>2026-05-03T08:56:36.261Z</time></trkpt><trkpt lat="41.991604" lon="13.8105519"><ele>617.5714285714286</ele><time>2026-05-03T08:56:53.26Z</time></trkpt><trkpt lat="41.9915556" lon="13.8104976"><ele>619.8571428571429</ele><time>2026-05-03T08:57:04.257Z</time></trkpt><trkpt lat="41.9914908" lon="13.8104718"><ele>622.1428571428571</ele><time>2026-05-03T08:58:45.258Z</time></trkpt><trkpt lat="41.9915506" lon="13.8105291"><ele>624.4285714285714</ele><time>2026-05-03T08:59:35.259Z</time></trkpt><trkpt lat="41.9914876" lon="13.8105119"><ele>626.7142857142857</ele><time>2026-05-03T09:00:22.263Z</time></trkpt><trkpt lat="41.9914275" lon="13.8104762"><ele>629.0</ele><time>2026-05-03T09:00:35.296Z</time></trkpt><trkpt lat="41.9913642" lon="13.810473"><ele>629.0</ele><time>2026-05-03T09:00:46.26Z</time></trkpt><trkpt lat="41.9913183" lon="13.8105409"><ele>629.0</ele><time>2026-05-03T09:00:55.263Z</time></trkpt><trkpt lat="41.9912634" lon="13.8105892"><ele>629.0</ele><time>2026-05-03T09:01:05.273Z</time></trkpt><trkpt lat="41.9912768" lon="13.8106733"><ele>629.0</ele><time>2026-05-03T09:01:39.274Z</time></trkpt><trkpt lat="41.9912798" lon="13.81076"><ele>629.0</ele><time>2026-05-03T09:03:37.259Z</time></trkpt><trkpt lat="41.9912128" lon="13.8107384"><ele>629.0</ele><time>2026-05-03T09:03:46.256Z</time></trkpt><trkpt lat="41.9911483" lon="13.8107146"><ele>629.0</ele><time>2026-05-03T09:03:54.27Z</time></trkpt><trkpt lat="41.9910857" lon="13.8107331"><ele>629.0</ele><time>2026-05-03T09:04:06.257Z</time></trkpt><trkpt lat="41.9911207" lon="13.8108142"><ele>629.0</ele><time>2026-05-03T09:04:22.26Z</time></trkpt><trkpt lat="41.9911093" lon="13.8109007"><ele>629.0</ele><time>2026-05-03T09:04:33.298Z</time></trkpt><trkpt lat="41.9910451" lon="13.8108841"><ele>629.0</ele><time>2026-05-03T09:04:41.255Z</time></trkpt><trkpt lat="41.9909763" lon="13.8108954"><ele>629.0</ele><time>2026-05-03T09:04:56.257Z</time></trkpt><trkpt lat="41.9909166" lon="13.8109284"><ele>629.0</ele><time>2026-05-03T09:06:08.262Z</time></trkpt><trkpt lat="41.990956" lon="13.8110045"><ele>629.0</ele><time>2026-05-03T09:06:20.259Z</time></trkpt><trkpt lat="41.9908851" lon="13.8110139"><ele>633.2857142857142</ele><time>2026-05-03T09:06:41.227Z</time></trkpt><trkpt lat="41.9908187" lon="13.8110249"><ele>637.5714285714287</ele><time>2026-05-03T09:06:57.259Z</time></trkpt><trkpt lat="41.9908363" lon="13.8111071"><ele>641.8571428571429</ele><time>2026-05-03T09:07:08.257Z</time></trkpt><trkpt lat="41.9908786" lon="13.8111707"><ele>646.1428571428571</ele><time>2026-05-03T09:07:20.28Z</time></trkpt><trkpt lat="41.9908172" lon="13.8111498"><ele>650.4285714285713</ele><time>2026-05-03T09:07:36.274Z</time></trkpt><trkpt lat="41.9908381" lon="13.8112352"><ele>654.7142857142858</ele><time>2026-05-03T09:07:50.303Z</time></trkpt><trkpt lat="41.9908571" lon="13.811318"><ele>659.0</ele><time>2026-05-03T09:08:02.26Z</time></trkpt><trkpt lat="41.9908013" lon="13.8112703"><ele>661.5714285714286</ele><time>2026-05-03T09:09:55.258Z</time></trkpt><trkpt lat="41.9907382" lon="13.8112849"><ele>664.1428571428571</ele><time>2026-05-03T09:10:04.281Z</time></trkpt><trkpt lat="41.9906701" lon="13.811272"><ele>666.7142857142857</ele><time>2026-05-03T09:10:14.259Z</time></trkpt><trkpt lat="41.9906324" lon="13.8113405"><ele>669.2857142857142</ele><time>2026-05-03T09:10:28.259Z</time></trkpt><trkpt lat="41.9905698" lon="13.8113717"><ele>671.8571428571429</ele><time>2026-05-03T09:10:40.294Z</time></trkpt><trkpt lat="41.9905913" lon="13.8114576"><ele>674.4285714285713</ele><time>2026-05-03T09:10:49.258Z</time></trkpt><trkpt lat="41.9906596" lon="13.8114814"><ele>677.0</ele><time>2026-05-03T09:10:55.283Z</time></trkpt><trkpt lat="41.9907236" lon="13.811506"><ele>676.9999999999999</ele><time>2026-05-03T09:11:07.257Z</time></trkpt><trkpt lat="41.9907207" lon="13.811603"><ele>677.0</ele><time>2026-05-03T09:12:15.258Z</time></trkpt><trkpt lat="41.990649" lon="13.8116039"><ele>677.0</ele><time>2026-05-03T09:12:23.301Z</time></trkpt><trkpt lat="41.9906685" lon="13.8116903"><ele>677.0</ele><time>2026-05-03T09:12:41.307Z</time></trkpt><trkpt lat="41.9907364" lon="13.8117193"><ele>677.0</ele><time>2026-05-03T09:14:38.249Z</time></trkpt><trkpt lat="41.9907927" lon="13.8117653"><ele>676.9999999999999</ele><time>2026-05-03T09:14:55.258Z</time></trkpt><trkpt lat="41.9908597" lon="13.8117566"><ele>677.0</ele><time>2026-05-03T09:15:05.254Z</time></trkpt><trkpt lat="41.9908857" lon="13.8116748"><ele>676.9999999999999</ele><time>2026-05-03T09:15:23.26Z</time></trkpt><trkpt lat="41.9908935" lon="13.8117638"><ele>677.0</ele><time>2026-05-03T09:15:39.313Z</time></trkpt><trkpt lat="41.9908556" lon="13.8118328"><ele>677.0</ele><time>2026-05-03T09:15:50.278Z</time></trkpt><trkpt lat="41.9907883" lon="13.8118257"><ele>677.0</ele><time>2026-05-03T09:16:02.26Z</time></trkpt><trkpt lat="41.9907452" lon="13.8117525"><ele>677.0</ele><time>2026-05-03T09:16:18.23Z</time></trkpt><trkpt lat="41.9907882" lon="13.8118237"><ele>676.9999999999999</ele><time>2026-05-03T09:21:43.165Z</time></trkpt><trkpt lat="41.990793" lon="13.8119204"><ele>677.0</ele><time>2026-05-03T09:23:47.255Z</time></trkpt><trkpt lat="41.9907631" lon="13.8120031"><ele>679.5714285714286</ele><time>2026-05-03T09:23:55.293Z</time></trkpt><trkpt lat="41.9907362" lon="13.8120885"><ele>682.1428571428571</ele><time>2026-05-03T09:24:07.266Z</time></trkpt><trkpt lat="41.9907202" lon="13.8121801"><ele>684.7142857142858</ele><time>2026-05-03T09:24:24.043Z</time></trkpt><trkpt lat="41.9906719" lon="13.812235"><ele>687.2857142857142</ele><time>2026-05-03T09:24:34.217Z</time></trkpt><trkpt lat="41.9906536" lon="13.8123208"><ele>689.8571428571429</ele><time>2026-05-03T09:24:44.293Z</time></trkpt><trkpt lat="41.9906548" lon="13.8124099"><ele>692.4285714285714</ele><time>2026-05-03T09:24:53.258Z</time></trkpt><trkpt lat="41.9906233" lon="13.8124934"><ele>695.0</ele><time>2026-05-03T09:25:05.206Z</time></trkpt><trkpt lat="41.9905999" lon="13.8125799"><ele>697.1428571428572</ele><time>2026-05-03T09:25:16.255Z</time></trkpt><trkpt lat="41.9905995" lon="13.8126651"><ele>699.2857142857143</ele><time>2026-05-03T09:25:29.267Z</time></trkpt><trkpt lat="41.9905536" lon="13.8127267"><ele>701.4285714285714</ele><time>2026-05-03T09:25:39.256Z</time></trkpt><trkpt lat="41.9905474" lon="13.8128184"><ele>703.5714285714287</ele><time>2026-05-03T09:25:49.263Z</time></trkpt><trkpt lat="41.9905825" lon="13.8128914"><ele>705.7142857142858</ele><time>2026-05-03T09:25:59.256Z</time></trkpt><trkpt lat="41.9905909" lon="13.8129802"><ele>707.8571428571429</ele><time>2026-05-03T09:26:10.256Z</time></trkpt><trkpt lat="41.9905252" lon="13.8130051"><ele>710.0</ele><time>2026-05-03T09:26:24.23Z</time></trkpt><trkpt lat="41.9904652" lon="13.8130456"><ele>710.0</ele><time>2026-05-03T09:26:35.268Z</time></trkpt><trkpt lat="41.9904636" lon="13.813132"><ele>710.0</ele><time>2026-05-03T09:26:47.257Z</time></trkpt><trkpt lat="41.9904408" lon="13.8132137"><ele>710.0</ele><time>2026-05-03T09:26:57.3Z</time></trkpt><trkpt lat="41.9904748" lon="13.8132864"><ele>710.0</ele><time>2026-05-03T09:27:08.267Z</time></trkpt><trkpt lat="41.9905188" lon="13.8133582"><ele>710.0</ele><time>2026-05-03T09:28:30.253Z</time></trkpt><trkpt lat="41.9905262" lon="13.8134505"><ele>710.0</ele><time>2026-05-03T09:28:41.258Z</time></trkpt><trkpt lat="41.9905509" lon="13.813535"><ele>710.0</ele><time>2026-05-03T09:28:52.297Z</time></trkpt><trkpt lat="41.9905742" lon="13.8136171"><ele>712.2857142857142</ele><time>2026-05-03T09:29:00.159Z</time></trkpt><trkpt lat="41.9905897" lon="13.8137078"><ele>714.5714285714286</ele><time>2026-05-03T09:29:08.294Z</time></trkpt><trkpt lat="41.990553" lon="13.8137854"><ele>716.8571428571429</ele><time>2026-05-03T09:29:17.259Z</time></trkpt><trkpt lat="41.9905509" lon="13.8138779"><ele>719.1428571428571</ele><time>2026-05-03T09:29:26.276Z</time></trkpt><trkpt lat="41.9905457" lon="13.8139694"><ele>721.4285714285714</ele><time>2026-05-03T09:29:37.269Z</time></trkpt><trkpt lat="41.990549" lon="13.8140571"><ele>723.7142857142857</ele><time>2026-05-03T09:29:49.259Z</time></trkpt><trkpt lat="41.9905884" lon="13.8141259"><ele>726.0</ele><time>2026-05-03T09:29:57.289Z</time></trkpt><trkpt lat="41.9906135" lon="13.8142073"><ele>725.9999999999999</ele><time>2026-05-03T09:30:08.256Z</time></trkpt><trkpt lat="41.9906265" lon="13.8142965"><ele>726.0</ele><time>2026-05-03T09:31:45.254Z</time></trkpt><trkpt lat="41.990604" lon="13.8143893"><ele>726.0</ele><time>2026-05-03T09:31:59.253Z</time></trkpt><trkpt lat="41.9905627" lon="13.8144578"><ele>726.0</ele><time>2026-05-03T09:32:08.287Z</time></trkpt><trkpt lat="41.9905108" lon="13.8145114"><ele>726.0</ele><time>2026-05-03T09:32:23.277Z</time></trkpt><trkpt lat="41.9905023" lon="13.8146022"><ele>725.9999999999999</ele><time>2026-05-03T09:32:34.255Z</time></trkpt><trkpt lat="41.9904409" lon="13.8146312"><ele>726.0</ele><time>2026-05-03T09:32:44.305Z</time></trkpt><trkpt lat="41.990388" lon="13.8146831"><ele>727.4285714285713</ele><time>2026-05-03T09:32:54.259Z</time></trkpt><trkpt lat="41.9903554" lon="13.8147607"><ele>728.8571428571429</ele><time>2026-05-03T09:33:06.184Z</time></trkpt><trkpt lat="41.9902923" lon="13.8147776"><ele>730.2857142857142</ele><time>2026-05-03T09:43:22.254Z</time></trkpt><trkpt lat="41.9902267" lon="13.8147878"><ele>731.7142857142857</ele><time>2026-05-03T09:43:35.257Z</time></trkpt><trkpt lat="41.9901554" lon="13.8148151"><ele>733.1428571428571</ele><time>2026-05-03T09:43:47.296Z</time></trkpt><trkpt lat="41.9900928" lon="13.8148009"><ele>734.5714285714286</ele><time>2026-05-03T09:44:23.257Z</time></trkpt><trkpt lat="41.9900266" lon="13.8148032"><ele>736.0</ele><time>2026-05-03T09:44:30.219Z</time></trkpt><trkpt lat="41.9899708" lon="13.81476"><ele>738.8571428571429</ele><time>2026-05-03T09:44:38.301Z</time></trkpt><trkpt lat="41.9899139" lon="13.8147191"><ele>741.7142857142857</ele><time>2026-05-03T09:44:46.224Z</time></trkpt><trkpt lat="41.9898687" lon="13.8146586"><ele>744.5714285714286</ele><time>2026-05-03T09:44:51.279Z</time></trkpt><trkpt lat="41.9898048" lon="13.8146558"><ele>747.4285714285714</ele><time>2026-05-03T09:44:57.256Z</time></trkpt><trkpt lat="41.9897362" lon="13.8146265"><ele>750.2857142857142</ele><time>2026-05-03T09:45:06.324Z</time></trkpt><trkpt lat="41.9896797" lon="13.8146742"><ele>753.1428571428571</ele><time>2026-05-03T09:45:13.288Z</time></trkpt><trkpt lat="41.9896124" lon="13.8146788"><ele>756.0</ele><time>2026-05-03T09:45:19.224Z</time></trkpt><trkpt lat="41.9895481" lon="13.8146572"><ele>756.0</ele><time>2026-05-03T09:45:27.294Z</time></trkpt><trkpt lat="41.9894838" lon="13.8146207"><ele>756.0</ele><time>2026-05-03T09:45:36.324Z</time></trkpt><trkpt lat="41.9894163" lon="13.8146292"><ele>756.0</ele><time>2026-05-03T09:45:46.257Z</time></trkpt><trkpt lat="41.9894059" lon="13.8147181"><ele>756.0</ele><time>2026-05-03T09:45:55.262Z</time></trkpt><trkpt lat="41.9893555" lon="13.8147768"><ele>756.0</ele><time>2026-05-03T09:46:05.254Z</time></trkpt><trkpt lat="41.9892962" lon="13.8147242"><ele>756.0</ele><time>2026-05-03T09:46:14.205Z</time></trkpt><trkpt lat="41.989244" lon="13.8146652"><ele>756.0</ele><time>2026-05-03T09:46:35.301Z</time></trkpt><trkpt lat="41.9892187" lon="13.8145816"><ele>756.0</ele><time>2026-05-03T09:46:53.256Z</time></trkpt><trkpt lat="41.9891792" lon="13.8144993"><ele>756.0</ele><time>2026-05-03T09:47:03.285Z</time></trkpt><trkpt lat="41.9891171" lon="13.8144734"><ele>756.0</ele><time>2026-05-03T09:47:09.251Z</time></trkpt><trkpt lat="41.9890555" lon="13.8144435"><ele>756.0</ele><time>2026-05-03T09:47:16.253Z</time></trkpt><trkpt lat="41.9889855" lon="13.8144316"><ele>756.0</ele><time>2026-05-03T09:47:24.292Z</time></trkpt><trkpt lat="41.9889294" lon="13.8143838"><ele>756.0</ele><time>2026-05-03T09:47:38.277Z</time></trkpt><trkpt lat="41.988861" lon="13.8144028"><ele>756.0</ele><time>2026-05-03T09:47:45.256Z</time></trkpt><trkpt lat="41.9887996" lon="13.8144229"><ele>755.0</ele><time>2026-05-03T09:47:52.225Z</time></trkpt><trkpt lat="41.9887163" lon="13.8144151"><ele>754.0</ele><time>2026-05-03T09:48:11.273Z</time></trkpt><trkpt lat="41.9886515" lon="13.8144143"><ele>753.0</ele><time>2026-05-03T09:48:17.255Z</time></trkpt><trkpt lat="41.9885918" lon="13.8143865"><ele>752.0</ele><time>2026-05-03T09:48:24.205Z</time></trkpt><trkpt lat="41.9885387" lon="13.8143343"><ele>751.0</ele><time>2026-05-03T09:48:34.253Z</time></trkpt><trkpt lat="41.9884807" lon="13.8142887"><ele>750.0</ele><time>2026-05-03T09:48:44.269Z</time></trkpt><trkpt lat="41.9885153" lon="13.8143718"><ele>749.0</ele><time>2026-05-03T09:50:31.252Z</time></trkpt><trkpt lat="41.9884456" lon="13.81439"><ele>751.7142857142857</ele><time>2026-05-03T09:50:40.257Z</time></trkpt><trkpt lat="41.9883805" lon="13.8143992"><ele>754.4285714285714</ele><time>2026-05-03T09:50:46.255Z</time></trkpt><trkpt lat="41.988316" lon="13.8143945"><ele>757.1428571428571</ele><time>2026-05-03T09:50:52.261Z</time></trkpt><trkpt lat="41.9882483" lon="13.8144134"><ele>759.8571428571429</ele><time>2026-05-03T09:50:58.162Z</time></trkpt><trkpt lat="41.9882029" lon="13.8144886"><ele>762.5714285714286</ele><time>2026-05-03T09:51:04.304Z</time></trkpt><trkpt lat="41.9882022" lon="13.8145823"><ele>765.2857142857142</ele><time>2026-05-03T09:51:11.301Z</time></trkpt><trkpt lat="41.9882591" lon="13.8146225"><ele>768.0</ele><time>2026-05-03T09:51:24.253Z</time></trkpt><trkpt lat="41.9882395" lon="13.8147031"><ele>769.4285714285713</ele><time>2026-05-03T09:51:35.29Z</time></trkpt><trkpt lat="41.988175" lon="13.8147125"><ele>770.8571428571429</ele><time>2026-05-03T09:51:43.256Z</time></trkpt><trkpt lat="41.9881092" lon="13.8147233"><ele>772.2857142857142</ele><time>2026-05-03T09:51:55.253Z</time></trkpt><trkpt lat="41.9880604" lon="13.8147782"><ele>773.7142857142857</ele><time>2026-05-03T09:52:28.2Z</time></trkpt><trkpt lat="41.9880264" lon="13.814706"><ele>775.1428571428571</ele><time>2026-05-03T09:55:20.258Z</time></trkpt><trkpt lat="41.9879666" lon="13.8146701"><ele>776.5714285714286</ele><time>2026-05-03T09:55:27.254Z</time></trkpt><trkpt lat="41.9878979" lon="13.814637"><ele>778.0</ele><time>2026-05-03T09:55:34.253Z</time></trkpt><trkpt lat="41.9878291" lon="13.8146336"><ele>778.0</ele><time>2026-05-03T09:55:39.254Z</time></trkpt><trkpt lat="41.9877634" lon="13.8146614"><ele>778.0</ele><time>2026-05-03T09:55:46.285Z</time></trkpt><trkpt lat="41.9876977" lon="13.8147033"><ele>778.0</ele><time>2026-05-03T09:56:02.309Z</time></trkpt><trkpt lat="41.9876279" lon="13.8147318"><ele>778.0</ele><time>2026-05-03T09:56:09.253Z</time></trkpt><trkpt lat="41.9875728" lon="13.8147906"><ele>778.0</ele><time>2026-05-03T09:56:16.318Z</time></trkpt><trkpt lat="41.9875229" lon="13.8148484"><ele>778.0</ele><time>2026-05-03T09:56:22.299Z</time></trkpt><trkpt lat="41.9874613" lon="13.8148773"><ele>778.0</ele><time>2026-05-03T09:56:28.255Z</time></trkpt><trkpt lat="41.9874076" lon="13.8149311"><ele>776.7142857142858</ele><time>2026-05-03T09:56:34.271Z</time></trkpt><trkpt lat="41.9873728" lon="13.8150069"><ele>775.4285714285713</ele><time>2026-05-03T09:56:41.252Z</time></trkpt><trkpt lat="41.9873187" lon="13.8150622"><ele>774.1428571428571</ele><time>2026-05-03T09:56:49.305Z</time></trkpt><trkpt lat="41.9872726" lon="13.8151262"><ele>772.8571428571429</ele><time>2026-05-03T09:56:57.221Z</time></trkpt><trkpt lat="41.9872137" lon="13.815178"><ele>771.5714285714287</ele><time>2026-05-03T09:57:05.256Z</time></trkpt><trkpt lat="41.9871511" lon="13.8151925"><ele>770.2857142857142</ele><time>2026-05-03T09:57:12.304Z</time></trkpt><trkpt lat="41.9870831" lon="13.8152114"><ele>769.0</ele><time>2026-05-03T09:57:20.253Z</time></trkpt><trkpt lat="41.9870263" lon="13.8152497"><ele>770.0</ele><time>2026-05-03T09:57:26.28Z</time></trkpt><trkpt lat="41.986957" lon="13.8152586"><ele>771.0</ele><time>2026-05-03T09:57:33.253Z</time></trkpt><trkpt lat="41.9868902" lon="13.8152768"><ele>772.0</ele><time>2026-05-03T09:57:40.157Z</time></trkpt><trkpt lat="41.9868326" lon="13.8153218"><ele>773.0</ele><time>2026-05-03T09:57:46.299Z</time></trkpt><trkpt lat="41.9867812" lon="13.8153776"><ele>774.0</ele><time>2026-05-03T09:57:52.241Z</time></trkpt><trkpt lat="41.9867144" lon="13.8154167"><ele>775.0</ele><time>2026-05-03T09:58:00.282Z</time></trkpt><trkpt lat="41.9866529" lon="13.8154658"><ele>776.0</ele><time>2026-05-03T09:58:08.254Z</time></trkpt><trkpt lat="41.9865935" lon="13.8155056"><ele>776.0</ele><time>2026-05-03T09:58:15.272Z</time></trkpt><trkpt lat="41.9865306" lon="13.8155455"><ele>776.0</ele><time>2026-05-03T09:58:22.254Z</time></trkpt><trkpt lat="41.9864688" lon="13.8155873"><ele>776.0</ele><time>2026-05-03T09:58:29.183Z</time></trkpt><trkpt lat="41.9864033" lon="13.8156218"><ele>776.0</ele><time>2026-05-03T09:58:36.297Z</time></trkpt><trkpt lat="41.9863456" lon="13.8156684"><ele>776.0</ele><time>2026-05-03T09:58:42.256Z</time></trkpt><trkpt lat="41.9862836" lon="13.8157153"><ele>776.0</ele><time>2026-05-03T09:58:49.275Z</time></trkpt><trkpt lat="41.9862202" lon="13.8157424"><ele>776.0</ele><time>2026-05-03T09:58:55.256Z</time></trkpt><trkpt lat="41.9861661" lon="13.8157967"><ele>776.0</ele><time>2026-05-03T09:59:02.255Z</time></trkpt><trkpt lat="41.9861094" lon="13.8158518"><ele>776.0</ele><time>2026-05-03T09:59:10.255Z</time></trkpt><trkpt lat="41.9860523" lon="13.8158949"><ele>776.0</ele><time>2026-05-03T09:59:28.256Z</time></trkpt><trkpt lat="41.9859984" lon="13.8159393"><ele>776.0</ele><time>2026-05-03T09:59:34.254Z</time></trkpt><trkpt lat="41.9859357" lon="13.8159647"><ele>776.0</ele><time>2026-05-03T09:59:40.277Z</time></trkpt><trkpt lat="41.9858717" lon="13.8159717"><ele>776.0</ele><time>2026-05-03T09:59:46.255Z</time></trkpt><trkpt lat="41.9858015" lon="13.8159848"><ele>776.0</ele><time>2026-05-03T09:59:54.262Z</time></trkpt><trkpt lat="41.9857389" lon="13.8160249"><ele>778.1428571428571</ele><time>2026-05-03T10:01:52.268Z</time></trkpt><trkpt lat="41.9856685" lon="13.8160616"><ele>780.2857142857143</ele><time>2026-05-03T10:01:56.252Z</time></trkpt><trkpt lat="41.9856045" lon="13.816059"><ele>782.4285714285714</ele><time>2026-05-03T10:02:02.256Z</time></trkpt><trkpt lat="41.9855425" lon="13.8160827"><ele>784.5714285714286</ele><time>2026-05-03T10:02:12.29Z</time></trkpt><trkpt lat="41.9854985" lon="13.816152"><ele>786.7142857142858</ele><time>2026-05-03T10:02:18.182Z</time></trkpt><trkpt lat="41.9854456" lon="13.8162096"><ele>788.8571428571429</ele><time>2026-05-03T10:02:25.244Z</time></trkpt><trkpt lat="41.9854062" lon="13.8162807"><ele>791.0</ele><time>2026-05-03T10:02:32.252Z</time></trkpt><trkpt lat="41.9853392" lon="13.8162889"><ele>791.0</ele><time>2026-05-03T10:02:39.255Z</time></trkpt><trkpt lat="41.9852741" lon="13.8162904"><ele>791.0</ele><time>2026-05-03T10:02:45.286Z</time></trkpt><trkpt lat="41.9852091" lon="13.8163127"><ele>791.0</ele><time>2026-05-03T10:02:52.222Z</time></trkpt><trkpt lat="41.985146" lon="13.8163449"><ele>791.0</ele><time>2026-05-03T10:02:59.275Z</time></trkpt><trkpt lat="41.985089" lon="13.816387"><ele>791.0</ele><time>2026-05-03T10:03:05.218Z</time></trkpt><trkpt lat="41.9850277" lon="13.816426"><ele>791.0</ele><time>2026-05-03T10:03:13.266Z</time></trkpt><trkpt lat="41.9849652" lon="13.816485"><ele>791.0</ele><time>2026-05-03T10:03:20.254Z</time></trkpt><trkpt lat="41.9849157" lon="13.8165458"><ele>789.8571428571429</ele><time>2026-05-03T10:03:31.27Z</time></trkpt><trkpt lat="41.9848868" lon="13.8166234"><ele>788.7142857142858</ele><time>2026-05-03T10:03:41.225Z</time></trkpt><trkpt lat="41.984857" lon="13.8167037"><ele>787.5714285714286</ele><time>2026-05-03T10:03:49.279Z</time></trkpt><trkpt lat="41.9848358" lon="13.8167881"><ele>786.4285714285714</ele><time>2026-05-03T10:03:57.255Z</time></trkpt><trkpt lat="41.9847863" lon="13.816847"><ele>785.2857142857143</ele><time>2026-05-03T10:04:04.27Z</time></trkpt><trkpt lat="41.9847453" lon="13.8169301"><ele>784.1428571428571</ele><time>2026-05-03T10:04:12.304Z</time></trkpt><trkpt lat="41.9846908" lon="13.8169823"><ele>783.0</ele><time>2026-05-03T10:04:21.297Z</time></trkpt><trkpt lat="41.9846316" lon="13.8170215"><ele>786.1428571428571</ele><time>2026-05-03T10:04:27.253Z</time></trkpt><trkpt lat="41.9845686" lon="13.8170675"><ele>789.2857142857143</ele><time>2026-05-03T10:04:34.297Z</time></trkpt><trkpt lat="41.9845106" lon="13.8171213"><ele>792.4285714285714</ele><time>2026-05-03T10:04:44.256Z</time></trkpt><trkpt lat="41.9844546" lon="13.8171626"><ele>795.5714285714286</ele><time>2026-05-03T10:04:53.283Z</time></trkpt><trkpt lat="41.9844086" lon="13.8172227"><ele>798.7142857142858</ele><time>2026-05-03T10:04:59.304Z</time></trkpt><trkpt lat="41.9843452" lon="13.8172269"><ele>801.8571428571429</ele><time>2026-05-03T10:05:06.255Z</time></trkpt><trkpt lat="41.9842973" lon="13.8172907"><ele>805.0</ele><time>2026-05-03T10:05:38.252Z</time></trkpt><trkpt lat="41.9842221" lon="13.817268"><ele>804.2857142857143</ele><time>2026-05-03T10:05:44.276Z</time></trkpt><trkpt lat="41.9841579" lon="13.8172521"><ele>803.5714285714286</ele><time>2026-05-03T10:07:08.253Z</time></trkpt><trkpt lat="41.9840931" lon="13.8172386"><ele>802.8571428571429</ele><time>2026-05-03T10:07:14.252Z</time></trkpt><trkpt lat="41.9840307" lon="13.8172261"><ele>802.1428571428571</ele><time>2026-05-03T10:07:21.265Z</time></trkpt><trkpt lat="41.9839682" lon="13.8171842"><ele>801.4285714285714</ele><time>2026-05-03T10:07:30.252Z</time></trkpt><trkpt lat="41.9839025" lon="13.8171583"><ele>800.7142857142858</ele><time>2026-05-03T10:07:37.257Z</time></trkpt><trkpt lat="41.9838317" lon="13.8171325"><ele>800.0</ele><time>2026-05-03T10:07:44.253Z</time></trkpt><trkpt lat="41.9837672" lon="13.8171584"><ele>800.0000000000001</ele><time>2026-05-03T10:07:50.254Z</time></trkpt><trkpt lat="41.9837101" lon="13.817108"><ele>800.0</ele><time>2026-05-03T10:07:59.286Z</time></trkpt><trkpt lat="41.9836809" lon="13.8171915"><ele>800.0</ele><time>2026-05-03T10:10:39.252Z</time></trkpt><trkpt lat="41.983623" lon="13.8172276"><ele>800.0</ele><time>2026-05-03T10:10:44.253Z</time></trkpt><trkpt lat="41.9835547" lon="13.8172405"><ele>800.0</ele><time>2026-05-03T10:10:50.25Z</time></trkpt><trkpt lat="41.98349" lon="13.8172668"><ele>800.0000000000001</ele><time>2026-05-03T10:10:56.253Z</time></trkpt><trkpt lat="41.9834182" lon="13.8172971"><ele>800.0</ele><time>2026-05-03T10:11:02.23Z</time></trkpt><trkpt lat="41.9833611" lon="13.8173445"><ele>799.7142857142858</ele><time>2026-05-03T10:11:08.286Z</time></trkpt><trkpt lat="41.9832983" lon="13.8173897"><ele>799.4285714285714</ele><time>2026-05-03T10:11:15.252Z</time></trkpt><trkpt lat="41.9832369" lon="13.8174147"><ele>799.1428571428571</ele><time>2026-05-03T10:11:21.204Z</time></trkpt><trkpt lat="41.9831739" lon="13.8174578"><ele>798.8571428571429</ele><time>2026-05-03T10:11:28.254Z</time></trkpt><trkpt lat="41.9831148" lon="13.817492"><ele>798.5714285714286</ele><time>2026-05-03T10:11:34.32Z</time></trkpt><trkpt lat="41.9830562" lon="13.8175308"><ele>798.2857142857143</ele><time>2026-05-03T10:11:40.227Z</time></trkpt><trkpt lat="41.9830171" lon="13.8176024"><ele>798.0</ele><time>2026-05-03T10:11:46.251Z</time></trkpt><trkpt lat="41.9829507" lon="13.8176402"><ele>798.0</ele><time>2026-05-03T10:11:52.264Z</time></trkpt><trkpt lat="41.9828868" lon="13.8176233"><ele>798.0</ele><time>2026-05-03T10:11:58.291Z</time></trkpt><trkpt lat="41.9828308" lon="13.8176703"><ele>798.0</ele><time>2026-05-03T10:12:05.252Z</time></trkpt><trkpt lat="41.9827981" lon="13.8177495"><ele>798.0</ele><time>2026-05-03T10:12:11.245Z</time></trkpt><trkpt lat="41.9827726" lon="13.8178304"><ele>798.0</ele><time>2026-05-03T10:12:19.252Z</time></trkpt><trkpt lat="41.9827009" lon="13.8178495"><ele>798.0</ele><time>2026-05-03T10:12:26.247Z</time></trkpt><trkpt lat="41.9826473" lon="13.8178966"><ele>798.0</ele><time>2026-05-03T10:12:35.253Z</time></trkpt><trkpt lat="41.9826141" lon="13.8179706"><ele>799.8571428571429</ele><time>2026-05-03T10:12:43.273Z</time></trkpt><trkpt lat="41.9825646" lon="13.8180302"><ele>801.7142857142858</ele><time>2026-05-03T10:12:51.252Z</time></trkpt><trkpt lat="41.9825019" lon="13.8180194"><ele>803.5714285714286</ele><time>2026-05-03T10:13:02.251Z</time></trkpt><trkpt lat="41.9824579" lon="13.8180849"><ele>805.4285714285714</ele><time>2026-05-03T10:13:49.274Z</time></trkpt><trkpt lat="41.982416" lon="13.8181633"><ele>807.2857142857143</ele><time>2026-05-03T10:13:57.253Z</time></trkpt><trkpt lat="41.9823661" lon="13.8182191"><ele>809.1428571428571</ele><time>2026-05-03T10:14:05.271Z</time></trkpt><trkpt lat="41.9823024" lon="13.8182496"><ele>811.0</ele><time>2026-05-03T10:14:12.253Z</time></trkpt><trkpt lat="41.9822452" lon="13.8183013"><ele>811.0</ele><time>2026-05-03T10:14:19.255Z</time></trkpt><trkpt lat="41.9822047" lon="13.8183662"><ele>811.0</ele><time>2026-05-03T10:14:25.291Z</time></trkpt><trkpt lat="41.9821866" lon="13.818448"><ele>811.0</ele><time>2026-05-03T10:14:32.252Z</time></trkpt><trkpt lat="41.982192" lon="13.8185364"><ele>811.0</ele><time>2026-05-03T10:14:39.276Z</time></trkpt><trkpt lat="41.9821606" lon="13.8186276"><ele>811.0</ele><time>2026-05-03T10:14:54.268Z</time></trkpt><trkpt lat="41.9821055" lon="13.8186768"><ele>811.0</ele><time>2026-05-03T10:14:59.254Z</time></trkpt><trkpt lat="41.9820795" lon="13.8187575"><ele>811.0</ele><time>2026-05-03T10:15:04.252Z</time></trkpt><trkpt lat="41.9820515" lon="13.8188407"><ele>810.7142857142857</ele><time>2026-05-03T10:15:10.181Z</time></trkpt><trkpt lat="41.982018" lon="13.8189227"><ele>810.4285714285714</ele><time>2026-05-03T10:15:16.301Z</time></trkpt><trkpt lat="41.9819784" lon="13.8189924"><ele>810.1428571428571</ele><time>2026-05-03T10:15:22.25Z</time></trkpt><trkpt lat="41.9819298" lon="13.8190559"><ele>809.8571428571429</ele><time>2026-05-03T10:15:27.926Z</time></trkpt><trkpt lat="41.9818725" lon="13.8191042"><ele>809.5714285714287</ele><time>2026-05-03T10:15:36.252Z</time></trkpt><trkpt lat="41.9818065" lon="13.8191271"><ele>809.2857142857143</ele><time>2026-05-03T10:15:42.258Z</time></trkpt><trkpt lat="41.9817439" lon="13.8191699"><ele>809.0</ele><time>2026-05-03T10:15:50.251Z</time></trkpt><trkpt lat="41.9816732" lon="13.8191928"><ele>809.0</ele><time>2026-05-03T10:15:57.252Z</time></trkpt><trkpt lat="41.9816153" lon="13.8192278"><ele>809.0</ele><time>2026-05-03T10:16:03.284Z</time></trkpt><trkpt lat="41.9815928" lon="13.8193115"><ele>809.0</ele><time>2026-05-03T10:16:08.253Z</time></trkpt><trkpt lat="41.9815599" lon="13.8193859"><ele>809.0</ele><time>2026-05-03T10:16:16.263Z</time></trkpt><trkpt lat="41.981521" lon="13.8194528"><ele>809.0</ele><time>2026-05-03T10:16:23.253Z</time></trkpt><trkpt lat="41.9814764" lon="13.8195213"><ele>809.0</ele><time>2026-05-03T10:16:30.252Z</time></trkpt><trkpt lat="41.9814422" lon="13.819598"><ele>809.0</ele><time>2026-05-03T10:16:37.253Z</time></trkpt><trkpt lat="41.9814374" lon="13.8196902"><ele>811.5714285714286</ele><time>2026-05-03T10:16:48.165Z</time></trkpt><trkpt lat="41.9813845" lon="13.8197414"><ele>814.1428571428571</ele><time>2026-05-03T10:16:53.304Z</time></trkpt><trkpt lat="41.9813287" lon="13.8197855"><ele>816.7142857142858</ele><time>2026-05-03T10:17:00.252Z</time></trkpt><trkpt lat="41.98127" lon="13.8198254"><ele>819.2857142857142</ele><time>2026-05-03T10:17:09.284Z</time></trkpt><trkpt lat="41.9812171" lon="13.8198822"><ele>821.8571428571428</ele><time>2026-05-03T10:17:15.252Z</time></trkpt><trkpt lat="41.9811572" lon="13.8199279"><ele>824.4285714285714</ele><time>2026-05-03T10:17:22.264Z</time></trkpt><trkpt lat="41.9810918" lon="13.819965"><ele>827.0</ele><time>2026-05-03T10:17:29.222Z</time></trkpt><trkpt lat="41.9810496" lon="13.8200476"><ele>827.0</ele><time>2026-05-03T10:17:40.202Z</time></trkpt><trkpt lat="41.9809853" lon="13.8200706"><ele>827.0</ele><time>2026-05-03T10:17:44.255Z</time></trkpt><trkpt lat="41.9809242" lon="13.8201253"><ele>827.0</ele><time>2026-05-03T10:17:50.258Z</time></trkpt><trkpt lat="41.980889" lon="13.8202024"><ele>827.0</ele><time>2026-05-03T10:17:56.184Z</time></trkpt><trkpt lat="41.9808618" lon="13.8202835"><ele>827.0</ele><time>2026-05-03T10:18:02.252Z</time></trkpt><trkpt lat="41.9808056" lon="13.8203385"><ele>827.0</ele><time>2026-05-03T10:18:09.304Z</time></trkpt><trkpt lat="41.9807446" lon="13.820369"><ele>827.0</ele><time>2026-05-03T10:18:18.251Z</time></trkpt><trkpt lat="41.980819" lon="13.8203628"><ele>827.2857142857143</ele><time>2026-05-03T10:18:26.253Z</time></trkpt><trkpt lat="41.9808756" lon="13.8203157"><ele>827.5714285714286</ele><time>2026-05-03T10:18:32.287Z</time></trkpt><trkpt lat="41.9809249" lon="13.8202479"><ele>827.8571428571429</ele><time>2026-05-03T10:18:39.252Z</time></trkpt><trkpt lat="41.9808966" lon="13.8201589"><ele>828.1428571428571</ele><time>2026-05-03T10:18:47.245Z</time></trkpt><trkpt lat="41.9808333" lon="13.8201861"><ele>828.4285714285713</ele><time>2026-05-03T10:18:57.202Z</time></trkpt><trkpt lat="41.9808548" lon="13.8202747"><ele>828.7142857142857</ele><time>2026-05-03T10:22:38.254Z</time></trkpt><trkpt lat="41.9809212" lon="13.820251"><ele>829.0</ele><time>2026-05-03T10:22:46.253Z</time></trkpt><trkpt lat="41.9809367" lon="13.8203416"><ele>829.0</ele><time>2026-05-03T10:23:06.278Z</time></trkpt><trkpt lat="41.9808684" lon="13.8203766"><ele>829.0</ele><time>2026-05-03T10:23:10.251Z</time></trkpt><trkpt lat="41.9808064" lon="13.8203918"><ele>829.0</ele><time>2026-05-03T10:23:15.18Z</time></trkpt><trkpt lat="41.9807456" lon="13.8203312"><ele>829.0</ele><time>2026-05-03T10:23:20.14Z</time></trkpt><trkpt lat="41.9807011" lon="13.820255"><ele>829.0</ele><time>2026-05-03T10:23:26.249Z</time></trkpt><trkpt lat="41.9806893" lon="13.8201715"><ele>829.0</ele><time>2026-05-03T10:23:32.165Z</time></trkpt><trkpt lat="41.9806966" lon="13.8200862"><ele>829.0</ele><time>2026-05-03T10:23:38.267Z</time></trkpt><trkpt lat="41.9807201" lon="13.8200022"><ele>827.8571428571429</ele><time>2026-05-03T10:23:44.302Z</time></trkpt><trkpt lat="41.9807314" lon="13.8199096"><ele>826.7142857142857</ele><time>2026-05-03T10:23:50.268Z</time></trkpt><trkpt lat="41.980732" lon="13.8198102"><ele>825.5714285714287</ele><time>2026-05-03T10:23:56.275Z</time></trkpt><trkpt lat="41.9807348" lon="13.8197152"><ele>824.4285714285714</ele><time>2026-05-03T10:24:02.166Z</time></trkpt><trkpt lat="41.9807506" lon="13.8196178"><ele>823.2857142857143</ele><time>2026-05-03T10:24:08.252Z</time></trkpt><trkpt lat="41.9807629" lon="13.819526"><ele>822.1428571428572</ele><time>2026-05-03T10:24:14.284Z</time></trkpt><trkpt lat="41.9807534" lon="13.8194393"><ele>821.0</ele><time>2026-05-03T10:24:19.254Z</time></trkpt><trkpt lat="41.9807586" lon="13.8193457"><ele>820.8571428571429</ele><time>2026-05-03T10:24:24.253Z</time></trkpt><trkpt lat="41.9807797" lon="13.8192659"><ele>820.7142857142858</ele><time>2026-05-03T10:24:29.276Z</time></trkpt><trkpt lat="41.9807972" lon="13.8191705"><ele>820.5714285714287</ele><time>2026-05-03T10:24:35.227Z</time></trkpt><trkpt lat="41.980824" lon="13.8190737"><ele>820.4285714285714</ele><time>2026-05-03T10:25:00.263Z</time></trkpt><trkpt lat="41.980864" lon="13.8190004"><ele>820.2857142857142</ele><time>2026-05-03T10:25:12.24Z</time></trkpt><trkpt lat="41.9808122" lon="13.8190509"><ele>820.1428571428572</ele><time>2026-05-03T10:31:31.25Z</time></trkpt><trkpt lat="41.9807486" lon="13.8190045"><ele>820.0</ele><time>2026-05-03T10:32:26.253Z</time></trkpt><trkpt lat="41.980743" lon="13.8189143"><ele>820.0</ele><time>2026-05-03T10:32:32.252Z</time></trkpt><trkpt lat="41.980755" lon="13.8188284"><ele>820.0</ele><time>2026-05-03T10:32:37.821Z</time></trkpt><trkpt lat="41.9807724" lon="13.8187413"><ele>820.0</ele><time>2026-05-03T10:32:45.282Z</time></trkpt><trkpt lat="41.9807314" lon="13.8186745"><ele>820.0</ele><time>2026-05-03T10:32:51.251Z</time></trkpt><trkpt lat="41.9807262" lon="13.8185841"><ele>820.0</ele><time>2026-05-03T10:32:58.166Z</time></trkpt><trkpt lat="41.9807419" lon="13.8184971"><ele>820.0</ele><time>2026-05-03T10:33:04.249Z</time></trkpt><trkpt lat="41.9807452" lon="13.8184047"><ele>820.0</ele><time>2026-05-03T10:33:10.982Z</time></trkpt><trkpt lat="41.9807366" lon="13.8183128"><ele>820.4285714285714</ele><time>2026-05-03T10:33:18.284Z</time></trkpt><trkpt lat="41.9807464" lon="13.8182255"><ele>820.8571428571428</ele><time>2026-05-03T10:33:24.25Z</time></trkpt><trkpt lat="41.9807621" lon="13.8181371"><ele>821.2857142857142</ele><time>2026-05-03T10:33:30.257Z</time></trkpt><trkpt lat="41.9807783" lon="13.8180531"><ele>821.7142857142858</ele><time>2026-05-03T10:33:36.294Z</time></trkpt><trkpt lat="41.9807911" lon="13.8179631"><ele>822.1428571428571</ele><time>2026-05-03T10:33:43.201Z</time></trkpt><trkpt lat="41.9808131" lon="13.8178773"><ele>822.5714285714286</ele><time>2026-05-03T10:33:52.225Z</time></trkpt><trkpt lat="41.9808331" lon="13.8177847"><ele>823.0</ele><time>2026-05-03T10:33:59.252Z</time></trkpt><trkpt lat="41.980842" lon="13.8176971"><ele>824.4285714285714</ele><time>2026-05-03T10:34:05.271Z</time></trkpt><trkpt lat="41.9808352" lon="13.8176034"><ele>825.8571428571429</ele><time>2026-05-03T10:34:12.227Z</time></trkpt><trkpt lat="41.9808449" lon="13.8175135"><ele>827.2857142857142</ele><time>2026-05-03T10:34:19.262Z</time></trkpt><trkpt lat="41.9808761" lon="13.8174293"><ele>828.7142857142858</ele><time>2026-05-03T10:34:26.251Z</time></trkpt><trkpt lat="41.9809032" lon="13.8173415"><ele>830.1428571428571</ele><time>2026-05-03T10:34:33.252Z</time></trkpt><trkpt lat="41.9809446" lon="13.8172655"><ele>831.5714285714286</ele><time>2026-05-03T10:34:40.285Z</time></trkpt><trkpt lat="41.9809898" lon="13.817203"><ele>833.0</ele><time>2026-05-03T10:34:46.307Z</time></trkpt><trkpt lat="41.9810485" lon="13.8171677"><ele>828.5714285714286</ele><time>2026-05-03T10:34:54.27Z</time></trkpt><trkpt lat="41.9810825" lon="13.8170863"><ele>824.1428571428571</ele><time>2026-05-03T10:35:00.253Z</time></trkpt><trkpt lat="41.9811124" lon="13.8170106"><ele>819.7142857142858</ele><time>2026-05-03T10:35:06.252Z</time></trkpt><trkpt lat="41.9811441" lon="13.8169368"><ele>815.2857142857142</ele><time>2026-05-03T10:35:12.28Z</time></trkpt><trkpt lat="41.9811795" lon="13.8168565"><ele>810.8571428571429</ele><time>2026-05-03T10:35:19.25Z</time></trkpt><trkpt lat="41.9812256" lon="13.8167859"><ele>806.4285714285714</ele><time>2026-05-03T10:35:27.205Z</time></trkpt><trkpt lat="41.9812552" lon="13.8167055"><ele>802.0</ele><time>2026-05-03T10:35:33.182Z</time></trkpt><trkpt lat="41.9812863" lon="13.8166215"><ele>802.0</ele><time>2026-05-03T10:35:40.226Z</time></trkpt><trkpt lat="41.9813259" lon="13.8165451"><ele>802.0</ele><time>2026-05-03T10:35:47.253Z</time></trkpt><trkpt lat="41.981365" lon="13.8164613"><ele>802.0</ele><time>2026-05-03T10:35:54.248Z</time></trkpt><trkpt lat="41.9814071" lon="13.8163886"><ele>802.0</ele><time>2026-05-03T10:36:00.273Z</time></trkpt><trkpt lat="41.981453" lon="13.8163139"><ele>802.0</ele><time>2026-05-03T10:36:07.248Z</time></trkpt><trkpt lat="41.9815033" lon="13.8162613"><ele>802.0</ele><time>2026-05-03T10:36:13.252Z</time></trkpt><trkpt lat="41.9815368" lon="13.8161785"><ele>802.0</ele><time>2026-05-03T10:36:19.289Z</time></trkpt><trkpt lat="41.9815735" lon="13.8161073"><ele>802.0</ele><time>2026-05-03T10:36:25.252Z</time></trkpt><trkpt lat="41.9816077" lon="13.8160317"><ele>802.0</ele><time>2026-05-03T10:36:31.262Z</time></trkpt><trkpt lat="41.981644" lon="13.815957"><ele>802.0</ele><time>2026-05-03T10:36:38.252Z</time></trkpt><trkpt lat="41.9816739" lon="13.8158763"><ele>802.0</ele><time>2026-05-03T10:36:45.201Z</time></trkpt><trkpt lat="41.9817067" lon="13.8158031"><ele>802.0</ele><time>2026-05-03T10:36:52.29Z</time></trkpt><trkpt lat="41.9817485" lon="13.8157229"><ele>802.0</ele><time>2026-05-03T10:37:00.202Z</time></trkpt><trkpt lat="41.9817925" lon="13.8156519"><ele>802.0</ele><time>2026-05-03T10:37:07.245Z</time></trkpt><trkpt lat="41.981824" lon="13.8155781"><ele>803.0</ele><time>2026-05-03T10:37:14.247Z</time></trkpt><trkpt lat="41.981856" lon="13.8154909"><ele>804.0</ele><time>2026-05-03T10:38:13.249Z</time></trkpt><trkpt lat="41.9818984" lon="13.8154218"><ele>805.0</ele><time>2026-05-03T10:38:19.249Z</time></trkpt><trkpt lat="41.9819224" lon="13.815341"><ele>806.0</ele><time>2026-05-03T10:38:25.303Z</time></trkpt><trkpt lat="41.9819767" lon="13.8152794"><ele>807.0</ele><time>2026-05-03T10:38:32.249Z</time></trkpt><trkpt lat="41.9820173" lon="13.8152059"><ele>808.0</ele><time>2026-05-03T10:38:39.248Z</time></trkpt><trkpt lat="41.9820656" lon="13.8151437"><ele>809.0</ele><time>2026-05-03T10:38:46.249Z</time></trkpt><trkpt lat="41.9821055" lon="13.8150631"><ele>809.0</ele><time>2026-05-03T10:38:53.22Z</time></trkpt><trkpt lat="41.9821439" lon="13.8149757"><ele>809.0</ele><time>2026-05-03T10:39:12.211Z</time></trkpt><trkpt lat="41.9821941" lon="13.8149161"><ele>809.0</ele><time>2026-05-03T10:39:25.25Z</time></trkpt><trkpt lat="41.9821594" lon="13.8148436"><ele>809.0</ele><time>2026-05-03T10:39:35.25Z</time></trkpt><trkpt lat="41.9821887" lon="13.8147588"><ele>809.0</ele><time>2026-05-03T10:39:43.248Z</time></trkpt><trkpt lat="41.9822381" lon="13.8146932"><ele>809.0</ele><time>2026-05-03T10:39:50.274Z</time></trkpt><trkpt lat="41.982274" lon="13.8146077"><ele>809.0</ele><time>2026-05-03T10:40:02.221Z</time></trkpt><trkpt lat="41.9823096" lon="13.8145334"><ele>809.0</ele><time>2026-05-03T10:40:08.284Z</time></trkpt><trkpt lat="41.9823436" lon="13.8144527"><ele>809.0</ele><time>2026-05-03T10:40:15.247Z</time></trkpt><trkpt lat="41.9823855" lon="13.8143661"><ele>809.0</ele><time>2026-05-03T10:40:27.248Z</time></trkpt><trkpt lat="41.9824233" lon="13.8142953"><ele>809.0</ele><time>2026-05-03T10:40:32.243Z</time></trkpt><trkpt lat="41.9824587" lon="13.8142112"><ele>809.0</ele><time>2026-05-03T10:40:39.272Z</time></trkpt><trkpt lat="41.982502" lon="13.8141444"><ele>809.0</ele><time>2026-05-03T10:40:46.248Z</time></trkpt><trkpt lat="41.9825176" lon="13.8140503"><ele>809.0</ele><time>2026-05-03T10:41:01.201Z</time></trkpt><trkpt lat="41.9825406" lon="13.8139713"><ele>806.2857142857143</ele><time>2026-05-03T10:41:06.249Z</time></trkpt><trkpt lat="41.9825817" lon="13.8139057"><ele>803.5714285714287</ele><time>2026-05-03T10:41:12.273Z</time></trkpt><trkpt lat="41.9826249" lon="13.8138414"><ele>800.8571428571429</ele><time>2026-05-03T10:41:18.25Z</time></trkpt><trkpt lat="41.982627" lon="13.8137464"><ele>798.1428571428571</ele><time>2026-05-03T10:41:25.267Z</time></trkpt><trkpt lat="41.9825844" lon="13.8136772"><ele>795.4285714285714</ele><time>2026-05-03T10:41:31.249Z</time></trkpt><trkpt lat="41.9825231" lon="13.8137399"><ele>792.7142857142857</ele><time>2026-05-03T10:42:09.247Z</time></trkpt><trkpt lat="41.9824649" lon="13.8137835"><ele>790.0</ele><time>2026-05-03T10:42:14.265Z</time></trkpt><trkpt lat="41.9824042" lon="13.8138309"><ele>795.7142857142857</ele><time>2026-05-03T10:42:21.249Z</time></trkpt><trkpt lat="41.9823429" lon="13.8138534"><ele>801.4285714285714</ele><time>2026-05-03T10:42:28.233Z</time></trkpt><trkpt lat="41.982278" lon="13.813896"><ele>807.1428571428571</ele><time>2026-05-03T10:42:37.289Z</time></trkpt><trkpt lat="41.9822917" lon="13.8139794"><ele>812.8571428571429</ele><time>2026-05-03T10:43:33.255Z</time></trkpt><trkpt lat="41.9823227" lon="13.8140564"><ele>818.5714285714287</ele><time>2026-05-03T10:43:45.252Z</time></trkpt><trkpt lat="41.9822943" lon="13.8139739"><ele>824.2857142857143</ele><time>2026-05-03T10:47:42.203Z</time></trkpt><trkpt lat="41.9822178" lon="13.8139895"><ele>830.0</ele><time>2026-05-03T10:48:00.247Z</time></trkpt><trkpt lat="41.982153" lon="13.8139963"><ele>819.0</ele><time>2026-05-03T10:48:05.262Z</time></trkpt><trkpt lat="41.9831876" lon="13.8133416"><ele>830.0</ele><time>2026-05-03T10:49:32.388Z</time></trkpt><trkpt lat="41.9820169" lon="13.8141115"><ele>830.0000000000001</ele><time>2026-05-03T10:50:59.247Z</time></trkpt><trkpt lat="41.9820776" lon="13.8140335"><ele>830.0</ele><time>2026-05-03T10:51:01.249Z</time></trkpt><trkpt lat="41.9820144" lon="13.8139305"><ele>830.0</ele><time>2026-05-03T10:51:10.249Z</time></trkpt><trkpt lat="41.9820789" lon="13.8139501"><ele>830.0</ele><time>2026-05-03T10:51:16.25Z</time></trkpt><trkpt lat="41.9821731" lon="13.8139902"><ele>830.0000000000001</ele><time>2026-05-03T10:53:33.215Z</time></trkpt><trkpt lat="41.9822073" lon="13.8139505"><ele>830.0</ele><time>2026-05-03T10:58:56.245Z</time></trkpt><trkpt lat="41.9822982" lon="13.8138225"><ele>830.0</ele><time>2026-05-03T11:06:30.246Z</time></trkpt><trkpt lat="41.9823638" lon="13.8138271"><ele>830.0</ele><time>2026-05-03T11:06:36.245Z</time></trkpt><trkpt lat="41.9824092" lon="13.8137582"><ele>830.0</ele><time>2026-05-03T11:06:42.247Z</time></trkpt><trkpt lat="41.9824508" lon="13.8136852"><ele>830.0</ele><time>2026-05-03T11:06:52.246Z</time></trkpt><trkpt lat="41.9825152" lon="13.8136529"><ele>830.0</ele><time>2026-05-03T11:06:58.25Z</time></trkpt><trkpt lat="41.9825812" lon="13.8136189"><ele>830.0</ele><time>2026-05-03T11:07:04.244Z</time></trkpt><trkpt lat="41.9826448" lon="13.8135763"><ele>830.0</ele><time>2026-05-03T11:07:10.168Z</time></trkpt><trkpt lat="41.9827158" lon="13.8135564"><ele>828.4285714285714</ele><time>2026-05-03T11:07:35.244Z</time></trkpt><trkpt lat="41.9827757" lon="13.8135138"><ele>826.8571428571429</ele><time>2026-05-03T11:07:40.245Z</time></trkpt><trkpt lat="41.9828359" lon="13.8134709"><ele>825.2857142857142</ele><time>2026-05-03T11:07:46.164Z</time></trkpt><trkpt lat="41.9828895" lon="13.8134257"><ele>823.7142857142858</ele><time>2026-05-03T11:07:51.242Z</time></trkpt><trkpt lat="41.9829518" lon="13.8133831"><ele>822.1428571428571</ele><time>2026-05-03T11:08:00.149Z</time></trkpt><trkpt lat="41.9830009" lon="13.8133098"><ele>820.5714285714286</ele><time>2026-05-03T11:08:07.152Z</time></trkpt><trkpt lat="41.983069" lon="13.8132897"><ele>819.0</ele><time>2026-05-03T11:08:15.249Z</time></trkpt><trkpt lat="41.9831007" lon="13.8132123"><ele>819.0</ele><time>2026-05-03T11:08:22.246Z</time></trkpt><trkpt lat="41.9831662" lon="13.8131892"><ele>819.0</ele><time>2026-05-03T11:08:28.243Z</time></trkpt><trkpt lat="41.9832352" lon="13.8131555"><ele>819.0</ele><time>2026-05-03T11:08:35.188Z</time></trkpt><trkpt lat="41.9833017" lon="13.8131558"><ele>819.0</ele><time>2026-05-03T11:08:43.243Z</time></trkpt><trkpt lat="41.9833385" lon="13.8130782"><ele>819.0</ele><time>2026-05-03T11:08:49.26Z</time></trkpt><trkpt lat="41.9833626" lon="13.8129886"><ele>819.0</ele><time>2026-05-03T11:09:02.243Z</time></trkpt><trkpt lat="41.983423" lon="13.8129289"><ele>819.0</ele><time>2026-05-03T11:09:07.27Z</time></trkpt><trkpt lat="41.9834265" lon="13.8128003"><ele>813.5714285714286</ele><time>2026-05-03T11:09:32.245Z</time></trkpt><trkpt lat="41.9834475" lon="13.8127135"><ele>808.1428571428571</ele><time>2026-05-03T11:09:39.268Z</time></trkpt><trkpt lat="41.9834625" lon="13.8126247"><ele>802.7142857142858</ele><time>2026-05-03T11:09:48.228Z</time></trkpt><trkpt lat="41.9834823" lon="13.8125385"><ele>797.2857142857142</ele><time>2026-05-03T11:09:56.273Z</time></trkpt><trkpt lat="41.9834349" lon="13.8124781"><ele>791.8571428571429</ele><time>2026-05-03T11:10:02.245Z</time></trkpt><trkpt lat="41.9834176" lon="13.8123904"><ele>786.4285714285714</ele><time>2026-05-03T11:10:09.253Z</time></trkpt><trkpt lat="41.9834314" lon="13.8122972"><ele>781.0</ele><time>2026-05-03T11:10:16.247Z</time></trkpt><trkpt lat="41.9834437" lon="13.8122135"><ele>781.0</ele><time>2026-05-03T11:10:23.247Z</time></trkpt><trkpt lat="41.9834789" lon="13.8121307"><ele>781.0</ele><time>2026-05-03T11:10:31.243Z</time></trkpt><trkpt lat="41.9835377" lon="13.8120767"><ele>781.0</ele><time>2026-05-03T11:10:37.189Z</time></trkpt><trkpt lat="41.9835857" lon="13.8120103"><ele>781.0</ele><time>2026-05-03T11:10:43.262Z</time></trkpt><trkpt lat="41.9836399" lon="13.8119621"><ele>781.0</ele><time>2026-05-03T11:11:04.246Z</time></trkpt><trkpt lat="41.9836803" lon="13.8118852"><ele>781.0</ele><time>2026-05-03T11:14:51.243Z</time></trkpt><trkpt lat="41.9837437" lon="13.8118437"><ele>781.0</ele><time>2026-05-03T11:15:02.247Z</time></trkpt><trkpt lat="41.9838056" lon="13.8118108"><ele>781.0</ele><time>2026-05-03T11:15:11.244Z</time></trkpt><trkpt lat="41.9838675" lon="13.8118465"><ele>781.0</ele><time>2026-05-03T11:15:27.19Z</time></trkpt><trkpt lat="41.9839261" lon="13.8118926"><ele>781.0</ele><time>2026-05-03T11:16:26.279Z</time></trkpt><trkpt lat="41.9839181" lon="13.8117969"><ele>781.0</ele><time>2026-05-03T11:17:28.257Z</time></trkpt><trkpt lat="41.984019" lon="13.811767"><ele>781.0</ele><time>2026-05-03T11:17:55.246Z</time></trkpt><trkpt lat="41.9840827" lon="13.811775"><ele>781.0</ele><time>2026-05-03T11:18:14.192Z</time></trkpt><trkpt lat="41.984117" lon="13.811697"><ele>781.0</ele><time>2026-05-03T11:18:24.153Z</time></trkpt><trkpt lat="41.9841685" lon="13.8116342"><ele>775.1428571428571</ele><time>2026-05-03T11:20:37.159Z</time></trkpt><trkpt lat="41.9842028" lon="13.811562"><ele>769.2857142857143</ele><time>2026-05-03T11:25:24.243Z</time></trkpt><trkpt lat="41.9842411" lon="13.8114857"><ele>763.4285714285713</ele><time>2026-05-03T11:25:32.245Z</time></trkpt><trkpt lat="41.9842795" lon="13.8114175"><ele>757.5714285714286</ele><time>2026-05-03T11:25:42.212Z</time></trkpt><trkpt lat="41.9842409" lon="13.8113361"><ele>751.7142857142857</ele><time>2026-05-03T11:25:47.242Z</time></trkpt><trkpt lat="41.9842989" lon="13.8113026"><ele>745.8571428571428</ele><time>2026-05-03T11:26:08.27Z</time></trkpt><trkpt lat="41.9843423" lon="13.8112316"><ele>740.0</ele><time>2026-05-03T11:26:31.244Z</time></trkpt><trkpt lat="41.9843933" lon="13.8111763"><ele>739.9999999999999</ele><time>2026-05-03T11:26:37.268Z</time></trkpt><trkpt lat="41.9844494" lon="13.8111314"><ele>740.0</ele><time>2026-05-03T11:26:44.262Z</time></trkpt><trkpt lat="41.9845034" lon="13.8110755"><ele>740.0</ele><time>2026-05-03T11:26:53.253Z</time></trkpt><trkpt lat="41.9845716" lon="13.8110275"><ele>740.0</ele><time>2026-05-03T11:27:29.242Z</time></trkpt><trkpt lat="41.9845772" lon="13.8109244"><ele>740.0</ele><time>2026-05-03T11:28:14.241Z</time></trkpt><trkpt lat="41.9845213" lon="13.8109712"><ele>739.9999999999999</ele><time>2026-05-03T11:28:33.241Z</time></trkpt><trkpt lat="41.9845247" lon="13.8108854"><ele>740.0</ele><time>2026-05-03T11:29:16.242Z</time></trkpt><trkpt lat="41.9844598" lon="13.8108813"><ele>739.9999999999999</ele><time>2026-05-03T11:30:00.241Z</time></trkpt><trkpt lat="41.9843948" lon="13.8109033"><ele>740.0</ele><time>2026-05-03T11:30:13.24Z</time></trkpt><trkpt lat="41.9843292" lon="13.8109106"><ele>740.0</ele><time>2026-05-03T11:30:24.243Z</time></trkpt><trkpt lat="41.9842756" lon="13.8109555"><ele>740.0</ele><time>2026-05-03T11:30:33.242Z</time></trkpt><trkpt lat="41.9842287" lon="13.8110213"><ele>740.0</ele><time>2026-05-03T11:30:44.242Z</time></trkpt><trkpt lat="41.9841647" lon="13.8110254"><ele>739.9999999999999</ele><time>2026-05-03T11:30:56.24Z</time></trkpt><trkpt lat="41.984105" lon="13.8110578"><ele>740.0</ele><time>2026-05-03T11:32:59.243Z</time></trkpt><trkpt lat="41.9840412" lon="13.8110713"><ele>746.8571428571428</ele><time>2026-05-03T11:33:18.243Z</time></trkpt><trkpt lat="41.9839955" lon="13.8111303"><ele>753.7142857142857</ele><time>2026-05-03T11:33:30.24Z</time></trkpt><trkpt lat="41.9839525" lon="13.811193"><ele>760.5714285714286</ele><time>2026-05-03T11:33:38.242Z</time></trkpt><trkpt lat="41.9839067" lon="13.8112698"><ele>767.4285714285713</ele><time>2026-05-03T11:33:49.243Z</time></trkpt><trkpt lat="41.983936" lon="13.8111794"><ele>774.2857142857143</ele><time>2026-05-03T11:34:07.241Z</time></trkpt><trkpt lat="41.9838751" lon="13.8111439"><ele>781.1428571428571</ele><time>2026-05-03T11:34:27.243Z</time></trkpt><trkpt lat="41.9838108" lon="13.8112036"><ele>788.0</ele><time>2026-05-03T11:34:36.242Z</time></trkpt><trkpt lat="41.9837466" lon="13.8112063"><ele>788.0000000000001</ele><time>2026-05-03T11:35:32.241Z</time></trkpt><trkpt lat="41.98371" lon="13.8112968"><ele>788.0</ele><time>2026-05-03T11:35:44.243Z</time></trkpt><trkpt lat="41.9836564" lon="13.8112433"><ele>788.0</ele><time>2026-05-03T11:36:51.24Z</time></trkpt><trkpt lat="41.9836652" lon="13.811106"><ele>788.0</ele><time>2026-05-03T11:37:53.24Z</time></trkpt><trkpt lat="41.9836098" lon="13.8111475"><ele>788.0000000000001</ele><time>2026-05-03T11:39:03.238Z</time></trkpt><trkpt lat="41.9835436" lon="13.8112059"><ele>788.0</ele><time>2026-05-03T11:39:17.163Z</time></trkpt><trkpt lat="41.9834874" lon="13.8112651"><ele>788.0</ele><time>2026-05-03T11:39:38.279Z</time></trkpt><trkpt lat="41.9834244" lon="13.8112726"><ele>788.0</ele><time>2026-05-03T11:39:48.243Z</time></trkpt><trkpt lat="41.9833591" lon="13.8112703"><ele>788.0</ele><time>2026-05-03T11:39:57.24Z</time></trkpt><trkpt lat="41.9832946" lon="13.8112568"><ele>788.0</ele><time>2026-05-03T11:40:08.265Z</time></trkpt><trkpt lat="41.9832184" lon="13.8112827"><ele>788.0</ele><time>2026-05-03T11:40:35.236Z</time></trkpt><trkpt lat="41.9831612" lon="13.8113184"><ele>788.0</ele><time>2026-05-03T11:40:44.29Z</time></trkpt><trkpt lat="41.9831924" lon="13.8112417"><ele>788.0</ele><time>2026-05-03T11:41:27.257Z</time></trkpt><trkpt lat="41.9832486" lon="13.8111682"><ele>784.8571428571429</ele><time>2026-05-03T11:41:40.242Z</time></trkpt><trkpt lat="41.9832913" lon="13.8110973"><ele>781.7142857142858</ele><time>2026-05-03T11:41:49.24Z</time></trkpt><trkpt lat="41.983322" lon="13.8110204"><ele>778.5714285714286</ele><time>2026-05-03T11:42:02.274Z</time></trkpt><trkpt lat="41.9833497" lon="13.8109442"><ele>775.4285714285714</ele><time>2026-05-03T11:42:11.266Z</time></trkpt><trkpt lat="41.9834068" lon="13.8108966"><ele>772.2857142857142</ele><time>2026-05-03T11:42:20.24Z</time></trkpt><trkpt lat="41.9834561" lon="13.8108401"><ele>769.1428571428571</ele><time>2026-05-03T11:42:29.236Z</time></trkpt><trkpt lat="41.9833634" lon="13.8108811"><ele>766.0</ele><time>2026-05-03T11:42:56.241Z</time></trkpt><trkpt lat="41.9832947" lon="13.8108689"><ele>766.0</ele><time>2026-05-03T11:43:04.26Z</time></trkpt><trkpt lat="41.9832283" lon="13.8108732"><ele>766.0</ele><time>2026-05-03T11:43:14.241Z</time></trkpt><trkpt lat="41.9831798" lon="13.8109295"><ele>766.0</ele><time>2026-05-03T11:43:23.224Z</time></trkpt><trkpt lat="41.9831138" lon="13.810944"><ele>766.0</ele><time>2026-05-03T11:43:34.246Z</time></trkpt><trkpt lat="41.9830455" lon="13.8109381"><ele>766.0</ele><time>2026-05-03T11:43:45.242Z</time></trkpt><trkpt lat="41.9829981" lon="13.810994"><ele>766.0</ele><time>2026-05-03T11:43:56.24Z</time></trkpt><trkpt lat="41.9829316" lon="13.8110007"><ele>766.0</ele><time>2026-05-03T11:44:18.239Z</time></trkpt><trkpt lat="41.9828721" lon="13.8110324"><ele>766.0</ele><time>2026-05-03T11:44:29.241Z</time></trkpt><trkpt lat="41.9828092" lon="13.8110654"><ele>766.0</ele><time>2026-05-03T11:44:48.25Z</time></trkpt><trkpt lat="41.982744" lon="13.8110976"><ele>766.0</ele><time>2026-05-03T11:44:59.239Z</time></trkpt><trkpt lat="41.9826791" lon="13.8110986"><ele>766.0</ele><time>2026-05-03T11:45:12.255Z</time></trkpt><trkpt lat="41.9827304" lon="13.8110343"><ele>766.0</ele><time>2026-05-03T11:45:29.26Z</time></trkpt><trkpt lat="41.9827821" lon="13.8109765"><ele>766.0</ele><time>2026-05-03T11:45:35.242Z</time></trkpt><trkpt lat="41.9828414" lon="13.810932"><ele>766.0</ele><time>2026-05-03T11:45:43.246Z</time></trkpt><trkpt lat="41.9828766" lon="13.8108614"><ele>766.0</ele><time>2026-05-03T11:45:52.241Z</time></trkpt><trkpt lat="41.982804" lon="13.8108365"><ele>766.0</ele><time>2026-05-03T11:46:45.241Z</time></trkpt><trkpt lat="41.9827253" lon="13.810862"><ele>766.0</ele><time>2026-05-03T11:46:50.236Z</time></trkpt><trkpt lat="41.9826825" lon="13.810935"><ele>766.0</ele><time>2026-05-03T11:46:56.24Z</time></trkpt><trkpt lat="41.9826726" lon="13.8110267"><ele>766.0</ele><time>2026-05-03T11:47:17.208Z</time></trkpt><trkpt lat="41.9826215" lon="13.8110873"><ele>766.0</ele><time>2026-05-03T11:47:23.27Z</time></trkpt><trkpt lat="41.9825815" lon="13.8111677"><ele>766.0</ele><time>2026-05-03T11:47:42.239Z</time></trkpt><trkpt lat="41.9825567" lon="13.8112467"><ele>766.0</ele><time>2026-05-03T11:47:46.25Z</time></trkpt><trkpt lat="41.9825169" lon="13.8113196"><ele>766.0</ele><time>2026-05-03T11:47:51.243Z</time></trkpt><trkpt lat="41.9824641" lon="13.8113846"><ele>766.0</ele><time>2026-05-03T11:47:59.169Z</time></trkpt><trkpt lat="41.9824266" lon="13.8114646"><ele>766.0</ele><time>2026-05-03T11:48:05.237Z</time></trkpt><trkpt lat="41.982385" lon="13.8115336"><ele>766.0</ele><time>2026-05-03T11:48:12.237Z</time></trkpt><trkpt lat="41.9823355" lon="13.8116001"><ele>766.0</ele><time>2026-05-03T11:48:19.239Z</time></trkpt><trkpt lat="41.9822902" lon="13.8116689"><ele>766.0</ele><time>2026-05-03T11:48:25.254Z</time></trkpt><trkpt lat="41.9822562" lon="13.8117549"><ele>769.5714285714286</ele><time>2026-05-03T11:48:32.239Z</time></trkpt><trkpt lat="41.9822221" lon="13.8118272"><ele>773.1428571428571</ele><time>2026-05-03T11:48:38.24Z</time></trkpt><trkpt lat="41.9821596" lon="13.8118575"><ele>776.7142857142858</ele><time>2026-05-03T11:48:46.238Z</time></trkpt><trkpt lat="41.9821001" lon="13.8119176"><ele>780.2857142857142</ele><time>2026-05-03T11:48:52.242Z</time></trkpt><trkpt lat="41.9820464" lon="13.8119724"><ele>783.8571428571429</ele><time>2026-05-03T11:48:58.261Z</time></trkpt><trkpt lat="41.9820011" lon="13.8120472"><ele>787.4285714285714</ele><time>2026-05-03T11:49:05.239Z</time></trkpt><trkpt lat="41.9819318" lon="13.8120686"><ele>791.0</ele><time>2026-05-03T11:49:11.242Z</time></trkpt><trkpt lat="41.9818732" lon="13.8121091"><ele>791.0</ele><time>2026-05-03T11:49:17.279Z</time></trkpt><trkpt lat="41.9818279" lon="13.8121864"><ele>791.0</ele><time>2026-05-03T11:49:24.236Z</time></trkpt><trkpt lat="41.9817681" lon="13.8122415"><ele>791.0</ele><time>2026-05-03T11:49:31.268Z</time></trkpt><trkpt lat="41.9817112" lon="13.8122836"><ele>791.0</ele><time>2026-05-03T11:49:38.24Z</time></trkpt><trkpt lat="41.9816493" lon="13.8122991"><ele>791.0</ele><time>2026-05-03T11:49:46.262Z</time></trkpt><trkpt lat="41.9815801" lon="13.812309"><ele>791.0</ele><time>2026-05-03T11:49:53.238Z</time></trkpt><trkpt lat="41.9815506" lon="13.8123894"><ele>791.0</ele><time>2026-05-03T11:50:02.262Z</time></trkpt><trkpt lat="41.9815277" lon="13.81229"><ele>791.0</ele><time>2026-05-03T11:52:03.234Z</time></trkpt><trkpt lat="41.9816043" lon="13.8123065"><ele>791.0</ele><time>2026-05-03T11:53:24.252Z</time></trkpt><trkpt lat="41.9816702" lon="13.8122558"><ele>791.0</ele><time>2026-05-03T11:53:28.121Z</time></trkpt><trkpt lat="41.9817146" lon="13.812192"><ele>791.0</ele><time>2026-05-03T11:53:33.083Z</time></trkpt><trkpt lat="41.9817802" lon="13.8121506"><ele>791.0</ele><time>2026-05-03T11:53:38.91Z</time></trkpt><trkpt lat="41.9818393" lon="13.8121054"><ele>791.0</ele><time>2026-05-03T11:53:44.805Z</time></trkpt><trkpt lat="41.9818865" lon="13.8120418"><ele>791.0</ele><time>2026-05-03T11:53:50.783Z</time></trkpt><trkpt lat="41.9819255" lon="13.8119642"><ele>791.0</ele><time>2026-05-03T11:53:56.731Z</time></trkpt><trkpt lat="41.981974" lon="13.8118973"><ele>791.0</ele><time>2026-05-03T11:54:02.686Z</time></trkpt><trkpt lat="41.9820234" lon="13.8118303"><ele>791.0</ele><time>2026-05-03T11:54:08.664Z</time></trkpt><trkpt lat="41.9820711" lon="13.8117553"><ele>791.0</ele><time>2026-05-03T11:54:14.621Z</time></trkpt><trkpt lat="41.9820937" lon="13.8116694"><ele>791.0</ele><time>2026-05-03T11:54:20.53Z</time></trkpt><trkpt lat="41.9821261" lon="13.8115847"><ele>791.0</ele><time>2026-05-03T11:54:26.487Z</time></trkpt><trkpt lat="41.9821565" lon="13.8115078"><ele>791.0</ele><time>2026-05-03T11:54:31.849Z</time></trkpt><trkpt lat="41.982192" lon="13.8114237"><ele>781.7142857142857</ele><time>2026-05-03T11:54:37.703Z</time></trkpt><trkpt lat="41.9822187" lon="13.8113302"><ele>772.4285714285714</ele><time>2026-05-03T11:54:43.661Z</time></trkpt><trkpt lat="41.98225" lon="13.8112435"><ele>763.1428571428571</ele><time>2026-05-03T11:54:49.588Z</time></trkpt><trkpt lat="41.9822707" lon="13.8111517"><ele>753.8571428571429</ele><time>2026-05-03T11:54:55.488Z</time></trkpt><trkpt lat="41.982314" lon="13.8110882"><ele>744.5714285714286</ele><time>2026-05-03T11:55:00.474Z</time></trkpt><trkpt lat="41.9823542" lon="13.8109965"><ele>735.2857142857142</ele><time>2026-05-03T11:55:06.422Z</time></trkpt><trkpt lat="41.9823892" lon="13.8109132"><ele>726.0</ele><time>2026-05-03T11:55:12.35Z</time></trkpt><trkpt lat="41.9824189" lon="13.8108284"><ele>725.7142857142857</ele><time>2026-05-03T11:55:18.266Z</time></trkpt><trkpt lat="41.982448" lon="13.8107479"><ele>725.4285714285714</ele><time>2026-05-03T11:55:24.221Z</time></trkpt><trkpt lat="41.9824692" lon="13.8106622"><ele>725.1428571428571</ele><time>2026-05-03T11:55:30.278Z</time></trkpt><trkpt lat="41.9825272" lon="13.8106084"><ele>724.8571428571429</ele><time>2026-05-03T11:55:35.265Z</time></trkpt><trkpt lat="41.9825764" lon="13.8105398"><ele>724.5714285714286</ele><time>2026-05-03T11:55:41.235Z</time></trkpt><trkpt lat="41.982513" lon="13.8105424"><ele>724.2857142857142</ele><time>2026-05-03T11:55:58.239Z</time></trkpt><trkpt lat="41.9825682" lon="13.8104773"><ele>724.0</ele><time>2026-05-03T11:56:11.234Z</time></trkpt><trkpt lat="41.9826267" lon="13.8104429"><ele>724.0</ele><time>2026-05-03T11:56:16.262Z</time></trkpt><trkpt lat="41.9826613" lon="13.810351"><ele>724.0</ele><time>2026-05-03T11:56:20.242Z</time></trkpt><trkpt lat="41.9827214" lon="13.8103102"><ele>724.0</ele><time>2026-05-03T11:56:25.209Z</time></trkpt><trkpt lat="41.9827914" lon="13.810317"><ele>724.0</ele><time>2026-05-03T11:56:29.062Z</time></trkpt><trkpt lat="41.9828597" lon="13.8102964"><ele>724.0</ele><time>2026-05-03T11:56:33.982Z</time></trkpt><trkpt lat="41.9829197" lon="13.8102603"><ele>724.0</ele><time>2026-05-03T11:56:38.901Z</time></trkpt><trkpt lat="41.9829812" lon="13.8102018"><ele>724.0</ele><time>2026-05-03T11:56:44.829Z</time></trkpt><trkpt lat="41.9830402" lon="13.8101507"><ele>724.1428571428571</ele><time>2026-05-03T11:56:50.786Z</time></trkpt><trkpt lat="41.9830872" lon="13.8100802"><ele>724.2857142857142</ele><time>2026-05-03T11:56:56.904Z</time></trkpt><trkpt lat="41.9831535" lon="13.8101043"><ele>724.4285714285714</ele><time>2026-05-03T11:57:02.237Z</time></trkpt><trkpt lat="41.9832184" lon="13.8100698"><ele>724.5714285714286</ele><time>2026-05-03T11:57:07.241Z</time></trkpt><trkpt lat="41.9832728" lon="13.8100191"><ele>724.7142857142858</ele><time>2026-05-03T11:57:12.228Z</time></trkpt><trkpt lat="41.9833301" lon="13.8099818"><ele>724.8571428571429</ele><time>2026-05-03T11:57:18.244Z</time></trkpt><trkpt lat="41.9833775" lon="13.8099158"><ele>725.0</ele><time>2026-05-03T11:57:26.25Z</time></trkpt><trkpt lat="41.9834171" lon="13.8098406"><ele>725.0</ele><time>2026-05-03T11:57:33.239Z</time></trkpt><trkpt lat="41.9834672" lon="13.809782"><ele>725.0</ele><time>2026-05-03T11:57:39.24Z</time></trkpt><trkpt lat="41.9835189" lon="13.8097179"><ele>725.0</ele><time>2026-05-03T11:57:45.266Z</time></trkpt><trkpt lat="41.9835731" lon="13.8096562"><ele>725.0</ele><time>2026-05-03T11:57:52.239Z</time></trkpt><trkpt lat="41.9836242" lon="13.8095963"><ele>725.0</ele><time>2026-05-03T11:58:00.236Z</time></trkpt><trkpt lat="41.9836586" lon="13.8095159"><ele>725.0</ele><time>2026-05-03T11:58:06.24Z</time></trkpt><trkpt lat="41.9837005" lon="13.8094447"><ele>725.0</ele><time>2026-05-03T11:58:12.241Z</time></trkpt><trkpt lat="41.9837486" lon="13.8093784"><ele>720.4285714285714</ele><time>2026-05-03T11:58:18.236Z</time></trkpt><trkpt lat="41.983789" lon="13.8093081"><ele>715.8571428571429</ele><time>2026-05-03T11:58:24.237Z</time></trkpt><trkpt lat="41.9838368" lon="13.8092369"><ele>711.2857142857142</ele><time>2026-05-03T11:58:31.126Z</time></trkpt><trkpt lat="41.9838827" lon="13.8091676"><ele>706.7142857142858</ele><time>2026-05-03T11:58:36.066Z</time></trkpt><trkpt lat="41.9839187" lon="13.8090926"><ele>702.1428571428571</ele><time>2026-05-03T11:58:40.97Z</time></trkpt><trkpt lat="41.9839601" lon="13.8090124"><ele>697.5714285714286</ele><time>2026-05-03T11:58:46.925Z</time></trkpt><trkpt lat="41.9840072" lon="13.8089408"><ele>693.0</ele><time>2026-05-03T11:58:52.761Z</time></trkpt><trkpt lat="41.9840511" lon="13.8088696"><ele>693.0</ele><time>2026-05-03T11:58:57.621Z</time></trkpt><trkpt lat="41.9840952" lon="13.8087935"><ele>693.0</ele><time>2026-05-03T11:59:03.608Z</time></trkpt><trkpt lat="41.9841318" lon="13.8087071"><ele>693.0</ele><time>2026-05-03T11:59:09.485Z</time></trkpt><trkpt lat="41.9841814" lon="13.8086311"><ele>693.0</ele><time>2026-05-03T11:59:15.402Z</time></trkpt><trkpt lat="41.9842179" lon="13.8085583"><ele>693.0</ele><time>2026-05-03T11:59:21.274Z</time></trkpt><trkpt lat="41.984271" lon="13.8084878"><ele>693.0</ele><time>2026-05-03T11:59:27.236Z</time></trkpt><trkpt lat="41.9843189" lon="13.8084151"><ele>693.0</ele><time>2026-05-03T11:59:33.249Z</time></trkpt><trkpt lat="41.984354" lon="13.8083256"><ele>694.7142857142857</ele><time>2026-05-03T12:00:08.236Z</time></trkpt><trkpt lat="41.9844092" lon="13.8082822"><ele>696.4285714285714</ele><time>2026-05-03T12:00:11.237Z</time></trkpt><trkpt lat="41.984473" lon="13.8082209"><ele>698.1428571428571</ele><time>2026-05-03T12:00:16.286Z</time></trkpt><trkpt lat="41.9845034" lon="13.808135"><ele>699.8571428571429</ele><time>2026-05-03T12:00:21.252Z</time></trkpt><trkpt lat="41.984535" lon="13.8080493"><ele>701.5714285714286</ele><time>2026-05-03T12:00:26.128Z</time></trkpt><trkpt lat="41.9845698" lon="13.8079754"><ele>703.2857142857142</ele><time>2026-05-03T12:00:31.049Z</time></trkpt><trkpt lat="41.9846046" lon="13.8079045"><ele>705.0</ele><time>2026-05-03T12:00:35.97Z</time></trkpt><trkpt lat="41.9846395" lon="13.8078164"><ele>704.9999999999999</ele><time>2026-05-03T12:00:41.826Z</time></trkpt><trkpt lat="41.9846698" lon="13.8077303"><ele>705.0</ele><time>2026-05-03T12:00:47.746Z</time></trkpt><trkpt lat="41.9847034" lon="13.8076431"><ele>705.0</ele><time>2026-05-03T12:00:53.649Z</time></trkpt><trkpt lat="41.9847359" lon="13.8075574"><ele>705.0</ele><time>2026-05-03T12:00:59.579Z</time></trkpt><trkpt lat="41.9847652" lon="13.8074677"><ele>705.0</ele><time>2026-05-03T12:01:05.424Z</time></trkpt><trkpt lat="41.984801" lon="13.8073887"><ele>704.9999999999999</ele><time>2026-05-03T12:01:11.236Z</time></trkpt><trkpt lat="41.9848322" lon="13.8073112"><ele>705.0</ele><time>2026-05-03T12:01:16.285Z</time></trkpt><trkpt lat="41.9848661" lon="13.8072258"><ele>701.4285714285713</ele><time>2026-05-03T12:01:22.29Z</time></trkpt><trkpt lat="41.9848814" lon="13.8071413"><ele>697.8571428571429</ele><time>2026-05-03T12:01:28.237Z</time></trkpt><trkpt lat="41.9848831" lon="13.8070473"><ele>694.2857142857142</ele><time>2026-05-03T12:01:34.236Z</time></trkpt><trkpt lat="41.9848634" lon="13.806946"><ele>690.7142857142857</ele><time>2026-05-03T12:01:40.247Z</time></trkpt><trkpt lat="41.9848213" lon="13.8068683"><ele>687.1428571428571</ele><time>2026-05-03T12:01:46.233Z</time></trkpt><trkpt lat="41.9847935" lon="13.8067843"><ele>683.5714285714286</ele><time>2026-05-03T12:01:52.234Z</time></trkpt><trkpt lat="41.9847709" lon="13.8066937"><ele>680.0</ele><time>2026-05-03T12:01:58.259Z</time></trkpt><trkpt lat="41.9847646" lon="13.8065989"><ele>678.5714285714286</ele><time>2026-05-03T12:02:04.236Z</time></trkpt><trkpt lat="41.9847538" lon="13.8065043"><ele>677.1428571428571</ele><time>2026-05-03T12:02:10.237Z</time></trkpt><trkpt lat="41.9847493" lon="13.8064151"><ele>675.7142857142857</ele><time>2026-05-03T12:02:15.265Z</time></trkpt><trkpt lat="41.9847227" lon="13.8063312"><ele>674.2857142857142</ele><time>2026-05-03T12:03:05.236Z</time></trkpt><trkpt lat="41.9847166" lon="13.8062413"><ele>672.8571428571429</ele><time>2026-05-03T12:03:11.236Z</time></trkpt><trkpt lat="41.984707" lon="13.8061566"><ele>671.4285714285713</ele><time>2026-05-03T12:03:17.236Z</time></trkpt><trkpt lat="41.9847221" lon="13.8060613"><ele>670.0</ele><time>2026-05-03T12:03:24.235Z</time></trkpt><trkpt lat="41.9847393" lon="13.805964"><ele>669.5714285714286</ele><time>2026-05-03T12:03:30.235Z</time></trkpt><trkpt lat="41.9847416" lon="13.8058768"><ele>669.1428571428571</ele><time>2026-05-03T12:03:35.24Z</time></trkpt><trkpt lat="41.9847412" lon="13.8057894"><ele>668.7142857142858</ele><time>2026-05-03T12:03:40.24Z</time></trkpt><trkpt lat="41.9847401" lon="13.8056876"><ele>668.2857142857142</ele><time>2026-05-03T12:03:46.184Z</time></trkpt><trkpt lat="41.9847179" lon="13.8055976"><ele>667.8571428571429</ele><time>2026-05-03T12:03:52.261Z</time></trkpt><trkpt lat="41.9847045" lon="13.805505"><ele>667.4285714285714</ele><time>2026-05-03T12:03:58.236Z</time></trkpt><trkpt lat="41.9847085" lon="13.8054138"><ele>667.0</ele><time>2026-05-03T12:04:06.227Z</time></trkpt><trkpt lat="41.984721" lon="13.8053194"><ele>667.0000000000001</ele><time>2026-05-03T12:04:16.236Z</time></trkpt><trkpt lat="41.9847662" lon="13.8052408"><ele>667.0</ele><time>2026-05-03T12:04:23.224Z</time></trkpt><trkpt lat="41.9847723" lon="13.8051493"><ele>667.0</ele><time>2026-05-03T12:05:18.233Z</time></trkpt><trkpt lat="41.9847514" lon="13.8050604"><ele>667.0</ele><time>2026-05-03T12:05:24.209Z</time></trkpt><trkpt lat="41.9847489" lon="13.804971"><ele>667.0</ele><time>2026-05-03T12:05:34.24Z</time></trkpt><trkpt lat="41.9847215" lon="13.8048887"><ele>667.0000000000001</ele><time>2026-05-03T12:05:42.251Z</time></trkpt><trkpt lat="41.98468" lon="13.8048131"><ele>667.0</ele><time>2026-05-03T12:05:51.238Z</time></trkpt><trkpt lat="41.9846966" lon="13.8047314"><ele>666.5714285714287</ele><time>2026-05-03T12:06:05.229Z</time></trkpt><trkpt lat="41.9846613" lon="13.8046481"><ele>666.1428571428571</ele><time>2026-05-03T12:06:11.239Z</time></trkpt><trkpt lat="41.984621" lon="13.8045783"><ele>665.7142857142858</ele><time>2026-05-03T12:06:17.267Z</time></trkpt><trkpt lat="41.9845896" lon="13.804492"><ele>665.2857142857143</ele><time>2026-05-03T12:06:24.287Z</time></trkpt><trkpt lat="41.9845581" lon="13.8044144"><ele>664.8571428571429</ele><time>2026-05-03T12:06:34.274Z</time></trkpt><trkpt lat="41.9845926" lon="13.8043364"><ele>664.4285714285714</ele><time>2026-05-03T12:06:42.19Z</time></trkpt><trkpt lat="41.9846404" lon="13.8042724"><ele>664.0</ele><time>2026-05-03T12:06:48.259Z</time></trkpt><trkpt lat="41.9846647" lon="13.8041823"><ele>663.0</ele><time>2026-05-03T12:06:55.235Z</time></trkpt><trkpt lat="41.9847085" lon="13.8041086"><ele>662.0</ele><time>2026-05-03T12:07:03.253Z</time></trkpt><trkpt lat="41.9847519" lon="13.8040458"><ele>661.0</ele><time>2026-05-03T12:07:10.221Z</time></trkpt><trkpt lat="41.98477" lon="13.8039616"><ele>660.0</ele><time>2026-05-03T12:07:28.234Z</time></trkpt><trkpt lat="41.9847644" lon="13.8038684"><ele>659.0</ele><time>2026-05-03T12:07:39.233Z</time></trkpt><trkpt lat="41.9847577" lon="13.8037822"><ele>658.0</ele><time>2026-05-03T12:07:46.236Z</time></trkpt><trkpt lat="41.9847274" lon="13.8037074"><ele>657.0</ele><time>2026-05-03T12:07:53.261Z</time></trkpt><trkpt lat="41.9847391" lon="13.8036125"><ele>657.0</ele><time>2026-05-03T12:08:04.235Z</time></trkpt><trkpt lat="41.9847831" lon="13.8035506"><ele>657.0</ele><time>2026-05-03T12:08:12.279Z</time></trkpt><trkpt lat="41.9847642" lon="13.8036349"><ele>657.0</ele><time>2026-05-03T12:08:40.25Z</time></trkpt><trkpt lat="41.98472" lon="13.8037018"><ele>657.0</ele><time>2026-05-03T12:08:49.24Z</time></trkpt><trkpt lat="41.9846581" lon="13.8036583"><ele>657.0</ele><time>2026-05-03T12:08:57.25Z</time></trkpt><trkpt lat="41.9846407" lon="13.803574"><ele>657.0</ele><time>2026-05-03T12:09:05.239Z</time></trkpt><trkpt lat="41.9846175" lon="13.803492"><ele>657.0</ele><time>2026-05-03T12:09:15.302Z</time></trkpt><trkpt lat="41.9846762" lon="13.8034353"><ele>654.4285714285714</ele><time>2026-05-03T12:09:42.235Z</time></trkpt><trkpt lat="41.9847282" lon="13.8033791"><ele>651.8571428571429</ele><time>2026-05-03T12:10:13.235Z</time></trkpt><trkpt lat="41.9847892" lon="13.8033295"><ele>649.2857142857143</ele><time>2026-05-03T12:10:19.259Z</time></trkpt><trkpt lat="41.9848525" lon="13.8033185"><ele>646.7142857142858</ele><time>2026-05-03T12:12:10.234Z</time></trkpt><trkpt lat="41.9848042" lon="13.803223"><ele>644.1428571428571</ele><time>2026-05-03T12:13:23.234Z</time></trkpt><trkpt lat="41.9847448" lon="13.8032898"><ele>641.5714285714287</ele><time>2026-05-03T12:13:59.253Z</time></trkpt><trkpt lat="41.9847513" lon="13.8033784"><ele>639.0</ele><time>2026-05-03T12:14:20.233Z</time></trkpt><trkpt lat="41.9847288" lon="13.8034632"><ele>639.0000000000001</ele><time>2026-05-03T12:14:31.252Z</time></trkpt><trkpt lat="41.9846652" lon="13.8034954"><ele>639.0</ele><time>2026-05-03T12:15:06.284Z</time></trkpt><trkpt lat="41.9846333" lon="13.8035773"><ele>639.0</ele><time>2026-05-03T12:15:15.224Z</time></trkpt><trkpt lat="41.9846854" lon="13.8036427"><ele>639.0</ele><time>2026-05-03T12:15:21.261Z</time></trkpt><trkpt lat="41.984742" lon="13.8036865"><ele>639.0</ele><time>2026-05-03T12:16:13.235Z</time></trkpt><trkpt lat="41.9847936" lon="13.8036281"><ele>639.0000000000001</ele><time>2026-05-03T12:16:21.233Z</time></trkpt><trkpt lat="41.984858" lon="13.8036294"><ele>639.0</ele><time>2026-05-03T12:16:29.234Z</time></trkpt><trkpt lat="41.9848568" lon="13.8035038"><ele>639.0000000000001</ele><time>2026-05-03T12:16:57.268Z</time></trkpt><trkpt lat="41.9848778" lon="13.8034238"><ele>639.0</ele><time>2026-05-03T12:17:02.233Z</time></trkpt><trkpt lat="41.9849021" lon="13.8033393"><ele>639.0</ele><time>2026-05-03T12:17:09.222Z</time></trkpt><trkpt lat="41.9849507" lon="13.8032759"><ele>639.0</ele><time>2026-05-03T12:17:49.233Z</time></trkpt><trkpt lat="41.9849959" lon="13.8032052"><ele>639.0</ele><time>2026-05-03T12:17:57.235Z</time></trkpt><trkpt lat="41.9850489" lon="13.80314"><ele>639.0000000000001</ele><time>2026-05-03T12:18:04.235Z</time></trkpt><trkpt lat="41.9851116" lon="13.8031001"><ele>639.0</ele><time>2026-05-03T12:18:12.234Z</time></trkpt><trkpt lat="41.9851358" lon="13.8030207"><ele>637.7142857142858</ele><time>2026-05-03T12:18:20.287Z</time></trkpt><trkpt lat="41.9851668" lon="13.8029383"><ele>636.4285714285714</ele><time>2026-05-03T12:18:28.235Z</time></trkpt><trkpt lat="41.9852198" lon="13.8028897"><ele>635.1428571428571</ele><time>2026-05-03T12:18:36.226Z</time></trkpt><trkpt lat="41.9852232" lon="13.802804"><ele>633.8571428571429</ele><time>2026-05-03T12:19:17.233Z</time></trkpt><trkpt lat="41.9852179" lon="13.802714"><ele>632.5714285714286</ele><time>2026-05-03T12:19:25.233Z</time></trkpt><trkpt lat="41.9852553" lon="13.8026426"><ele>631.2857142857143</ele><time>2026-05-03T12:19:36.234Z</time></trkpt><trkpt lat="41.9852854" lon="13.8025409"><ele>630.0</ele><time>2026-05-03T12:20:07.249Z</time></trkpt><trkpt lat="41.9853449" lon="13.8024827"><ele>630.0</ele><time>2026-05-03T12:20:23.143Z</time></trkpt><trkpt lat="41.9854059" lon="13.8024431"><ele>630.0</ele><time>2026-05-03T12:20:33.234Z</time></trkpt><trkpt lat="41.98546" lon="13.8023903"><ele>630.0</ele><time>2026-05-03T12:20:41.261Z</time></trkpt><trkpt lat="41.9855255" lon="13.8023567"><ele>630.0</ele><time>2026-05-03T12:20:50.232Z</time></trkpt><trkpt lat="41.9855904" lon="13.8023383"><ele>630.0</ele><time>2026-05-03T12:20:58.232Z</time></trkpt><trkpt lat="41.9856226" lon="13.8022544"><ele>630.0</ele><time>2026-05-03T12:21:05.234Z</time></trkpt><trkpt lat="41.9856144" lon="13.8021659"><ele>630.0</ele><time>2026-05-03T12:21:16.232Z</time></trkpt><trkpt lat="41.9856076" lon="13.8020817"><ele>630.0</ele><time>2026-05-03T12:21:32.233Z</time></trkpt><trkpt lat="41.9856616" lon="13.8020281"><ele>630.0</ele><time>2026-05-03T12:21:38.232Z</time></trkpt><trkpt lat="41.9857105" lon="13.8019736"><ele>630.0</ele><time>2026-05-03T12:21:46.232Z</time></trkpt><trkpt lat="41.9857457" lon="13.8018971"><ele>630.0</ele><time>2026-05-03T12:22:01.26Z</time></trkpt><trkpt lat="41.9857838" lon="13.8018191"><ele>630.0</ele><time>2026-05-03T12:22:11.232Z</time></trkpt><trkpt lat="41.985852" lon="13.8018217"><ele>630.0</ele><time>2026-05-03T12:22:20.203Z</time></trkpt><trkpt lat="41.9859062" lon="13.8017779"><ele>630.0</ele><time>2026-05-03T12:22:29.236Z</time></trkpt><trkpt lat="41.9859498" lon="13.8017139"><ele>625.5</ele><time>2026-05-03T12:22:52.285Z</time></trkpt><trkpt lat="41.9860082" lon="13.8016755"><ele>621.0</ele><time>2026-05-03T12:22:59.168Z</time></trkpt><trkpt lat="41.986077" lon="13.8016844"><ele>616.5</ele><time>2026-05-03T12:23:06.267Z</time></trkpt><trkpt lat="41.9860606" lon="13.8016022"><ele>612.0</ele><time>2026-05-03T13:03:11.225Z</time></trkpt><trkpt lat="41.9861787" lon="13.8016727"><ele>607.5</ele><time>2026-05-03T13:15:06.222Z</time></trkpt><trkpt lat="41.9862065" lon="13.8015914"><ele>603.0</ele><time>2026-05-03T13:15:14.224Z</time></trkpt><trkpt lat="41.9862698" lon="13.8015555"><ele>603.0</ele><time>2026-05-03T13:15:22.225Z</time></trkpt><trkpt lat="41.9864287" lon="13.8015908"><ele>603.0</ele><time>2026-05-03T13:15:40.225Z</time></trkpt><trkpt lat="41.9864945" lon="13.8015935"><ele>603.0</ele><time>2026-05-03T13:15:58.225Z</time></trkpt><trkpt lat="41.9865604" lon="13.8015984"><ele>603.0</ele><time>2026-05-03T13:18:30.223Z</time></trkpt><trkpt lat="41.9866116" lon="13.801535"><ele>603.0</ele><time>2026-05-03T13:19:02.224Z</time></trkpt><trkpt lat="41.9866704" lon="13.801495"><ele>603.0</ele><time>2026-05-03T13:19:14.265Z</time></trkpt><trkpt lat="41.9867335" lon="13.8014663"><ele>607.7142857142858</ele><time>2026-05-03T13:19:27.245Z</time></trkpt><trkpt lat="41.9867881" lon="13.8014207"><ele>612.4285714285713</ele><time>2026-05-03T13:19:44.249Z</time></trkpt><trkpt lat="41.9868157" lon="13.8013403"><ele>617.1428571428571</ele><time>2026-05-03T13:20:28.222Z</time></trkpt><trkpt lat="41.9868378" lon="13.8012545"><ele>621.8571428571429</ele><time>2026-05-03T13:21:23.227Z</time></trkpt><trkpt lat="41.9869052" lon="13.8012367"><ele>626.5714285714287</ele><time>2026-05-03T13:21:36.226Z</time></trkpt><trkpt lat="41.9869652" lon="13.8011781"><ele>631.2857142857142</ele><time>2026-05-03T13:22:23.227Z</time></trkpt><trkpt lat="41.9870048" lon="13.8011092"><ele>636.0</ele><time>2026-05-03T13:22:43.223Z</time></trkpt><trkpt lat="41.9869733" lon="13.8010307"><ele>629.5714285714286</ele><time>2026-05-03T13:23:22.225Z</time></trkpt><trkpt lat="41.9869423" lon="13.8009565"><ele>623.1428571428572</ele><time>2026-05-03T13:25:01.222Z</time></trkpt><trkpt lat="41.9869737" lon="13.800879"><ele>616.7142857142858</ele><time>2026-05-03T13:34:06.22Z</time></trkpt><trkpt lat="41.9870354" lon="13.8008296"><ele>610.2857142857142</ele><time>2026-05-03T13:34:26.222Z</time></trkpt><trkpt lat="41.9870934" lon="13.8007765"><ele>603.8571428571429</ele><time>2026-05-03T13:34:33.223Z</time></trkpt><trkpt lat="41.9871459" lon="13.8007073"><ele>597.4285714285714</ele><time>2026-05-03T13:34:51.223Z</time></trkpt><trkpt lat="41.9872022" lon="13.8006552"><ele>591.0</ele><time>2026-05-03T13:34:57.22Z</time></trkpt><trkpt lat="41.9871367" lon="13.8007068"><ele>591.0</ele><time>2026-05-03T13:35:08.223Z</time></trkpt><trkpt lat="41.9871403" lon="13.8006173"><ele>591.0</ele><time>2026-05-03T13:35:25.224Z</time></trkpt><trkpt lat="41.98725" lon="13.800585"><ele>591.0</ele><time>2026-05-03T13:36:16.22Z</time></trkpt><trkpt lat="41.9873164" lon="13.800595"><ele>591.0</ele><time>2026-05-03T13:36:32.222Z</time></trkpt><trkpt lat="41.9873781" lon="13.800613"><ele>591.0</ele><time>2026-05-03T13:36:41.245Z</time></trkpt><trkpt lat="41.9873119" lon="13.8006148"><ele>591.0</ele><time>2026-05-03T13:43:46.218Z</time></trkpt><trkpt lat="41.9873158" lon="13.8005163"><ele>591.0</ele><time>2026-05-03T13:44:06.358Z</time></trkpt><trkpt lat="41.9873726" lon="13.8004605"><ele>591.0</ele><time>2026-05-03T13:44:12.199Z</time></trkpt><trkpt lat="41.9874374" lon="13.8004598"><ele>591.0</ele><time>2026-05-03T13:44:20.218Z</time></trkpt><trkpt lat="41.9875034" lon="13.8004222"><ele>591.0</ele><time>2026-05-03T13:44:30.245Z</time></trkpt><trkpt lat="41.9875709" lon="13.800413"><ele>591.0</ele><time>2026-05-03T13:44:37.26Z</time></trkpt><trkpt lat="41.9876432" lon="13.8004343"><ele>591.0</ele><time>2026-05-03T13:45:00.236Z</time></trkpt><trkpt lat="41.9876326" lon="13.8003455"><ele>591.0</ele><time>2026-05-03T13:46:30.216Z</time></trkpt><trkpt lat="41.987693" lon="13.8003109"><ele>591.0</ele><time>2026-05-03T13:46:38.185Z</time></trkpt><trkpt lat="41.9877734" lon="13.8003285"><ele>598.5</ele><time>2026-05-03T13:47:34.22Z</time></trkpt><trkpt lat="41.987703" lon="13.800347"><ele>606.0</ele><time>2026-05-03T13:49:39.195Z</time></trkpt><trkpt lat="41.9877263" lon="13.8004259"><ele>613.5</ele><time>2026-05-03T13:49:43.234Z</time></trkpt><trkpt lat="41.9877865" lon="13.8004716"><ele>621.0</ele><time>2026-05-03T13:49:47.215Z</time></trkpt><trkpt lat="41.9878467" lon="13.8004976"><ele>628.5</ele><time>2026-05-03T13:49:52.221Z</time></trkpt><trkpt lat="41.9879774" lon="13.8004149"><ele>636.0</ele><time>2026-05-03T13:54:05.219Z</time></trkpt><trkpt lat="41.9880487" lon="13.8004041"><ele>636.0</ele><time>2026-05-03T13:54:11.222Z</time></trkpt><trkpt lat="41.9881201" lon="13.8004129"><ele>636.0</ele><time>2026-05-03T13:54:16.248Z</time></trkpt><trkpt lat="41.9881735" lon="13.8003544"><ele>636.0</ele><time>2026-05-03T13:54:22.22Z</time></trkpt><trkpt lat="41.9882387" lon="13.8003303"><ele>636.0</ele><time>2026-05-03T13:54:29.273Z</time></trkpt><trkpt lat="41.9883018" lon="13.8003253"><ele>636.0</ele><time>2026-05-03T13:54:38.217Z</time></trkpt><trkpt lat="41.9883668" lon="13.8003669"><ele>636.0</ele><time>2026-05-03T13:54:47.234Z</time></trkpt><trkpt lat="41.9884322" lon="13.8003524"><ele>636.0</ele><time>2026-05-03T13:55:01.153Z</time></trkpt><trkpt lat="41.9884983" lon="13.8003582"><ele>644.1428571428571</ele><time>2026-05-03T13:55:25.217Z</time></trkpt><trkpt lat="41.9884557" lon="13.8004251"><ele>652.2857142857143</ele><time>2026-05-03T13:55:57.216Z</time></trkpt><trkpt lat="41.9884181" lon="13.8005028"><ele>660.4285714285714</ele><time>2026-05-03T13:56:29.406Z</time></trkpt><trkpt lat="41.9884824" lon="13.8004923"><ele>668.5714285714286</ele><time>2026-05-03T13:57:40.219Z</time></trkpt><trkpt lat="41.9885543" lon="13.8004742"><ele>676.7142857142858</ele><time>2026-05-03T13:58:02.224Z</time></trkpt><trkpt lat="41.9885986" lon="13.8003935"><ele>684.8571428571429</ele><time>2026-05-03T13:58:08.261Z</time></trkpt><trkpt lat="41.9886616" lon="13.8003576"><ele>693.0</ele><time>2026-05-03T13:58:13.219Z</time></trkpt><trkpt lat="41.9887237" lon="13.8003416"><ele>693.0</ele><time>2026-05-03T13:58:18.221Z</time></trkpt><trkpt lat="41.988797" lon="13.8003115"><ele>693.0</ele><time>2026-05-03T13:58:23.252Z</time></trkpt><trkpt lat="41.9888656" lon="13.800313"><ele>693.0</ele><time>2026-05-03T13:58:29.193Z</time></trkpt><trkpt lat="41.9889329" lon="13.8003029"><ele>693.0</ele><time>2026-05-03T13:58:51.17Z</time></trkpt><trkpt lat="41.9889919" lon="13.8002671"><ele>693.0</ele><time>2026-05-03T13:58:57.174Z</time></trkpt><trkpt lat="41.9890537" lon="13.800249"><ele>693.0</ele><time>2026-05-03T13:59:02.155Z</time></trkpt><trkpt lat="41.9891262" lon="13.8002239"><ele>693.0</ele><time>2026-05-03T13:59:09.234Z</time></trkpt><trkpt lat="41.9891843" lon="13.8001892"><ele>674.0</ele><time>2026-05-03T13:59:15.218Z</time></trkpt><trkpt lat="41.9892368" lon="13.8001282"><ele>655.0</ele><time>2026-05-03T13:59:21.215Z</time></trkpt><trkpt lat="41.9892999" lon="13.8000849"><ele>636.0</ele><time>2026-05-03T13:59:28.249Z</time></trkpt><trkpt lat="41.9893637" lon="13.8000571"><ele>617.0</ele><time>2026-05-03T14:00:09.216Z</time></trkpt><trkpt lat="41.9894293" lon="13.8000569"><ele>598.0</ele><time>2026-05-03T14:00:16.241Z</time></trkpt><trkpt lat="41.9895006" lon="13.8000371"><ele>579.0</ele><time>2026-05-03T14:00:28.218Z</time></trkpt><trkpt lat="41.9895698" lon="13.7999961"><ele>560.0</ele><time>2026-05-03T14:00:34.25Z</time></trkpt><trkpt lat="41.9896257" lon="13.7999479"><ele>560.0</ele><time>2026-05-03T14:00:40.219Z</time></trkpt><trkpt lat="41.989693" lon="13.7999393"><ele>560.0</ele><time>2026-05-03T14:00:46.167Z</time></trkpt><trkpt lat="41.9897594" lon="13.79993"><ele>560.0</ele><time>2026-05-03T14:00:53.27Z</time></trkpt><trkpt lat="41.9898206" lon="13.7999677"><ele>560.0</ele><time>2026-05-03T14:00:59.237Z</time></trkpt><trkpt lat="41.9898739" lon="13.8000304"><ele>560.0</ele><time>2026-05-03T14:01:05.232Z</time></trkpt><trkpt lat="41.9899013" lon="13.8001219"><ele>560.0</ele><time>2026-05-03T14:01:13.213Z</time></trkpt><trkpt lat="41.9899735" lon="13.8001347"><ele>560.0</ele><time>2026-05-03T14:01:22.24Z</time></trkpt><trkpt lat="41.9900426" lon="13.8001371"><ele>561.8571428571429</ele><time>2026-05-03T14:01:30.216Z</time></trkpt><trkpt lat="41.9901085" lon="13.8001458"><ele>563.7142857142858</ele><time>2026-05-03T14:01:37.218Z</time></trkpt><trkpt lat="41.9901735" lon="13.8001645"><ele>565.5714285714286</ele><time>2026-05-03T14:01:44.214Z</time></trkpt><trkpt lat="41.9902405" lon="13.8001615"><ele>567.4285714285714</ele><time>2026-05-03T14:01:50.21Z</time></trkpt><trkpt lat="41.9903126" lon="13.8001731"><ele>569.2857142857143</ele><time>2026-05-03T14:01:56.233Z</time></trkpt><trkpt lat="41.9903765" lon="13.8002132"><ele>571.1428571428571</ele><time>2026-05-03T14:02:02.25Z</time></trkpt><trkpt lat="41.9904105" lon="13.8002853"><ele>573.0</ele><time>2026-05-03T14:02:07.218Z</time></trkpt><trkpt lat="41.9904484" lon="13.8003617"><ele>573.0</ele><time>2026-05-03T14:02:13.251Z</time></trkpt><trkpt lat="41.9905181" lon="13.8003788"><ele>573.0</ele><time>2026-05-03T14:02:20.247Z</time></trkpt><trkpt lat="41.9905789" lon="13.8004184"><ele>573.0</ele><time>2026-05-03T14:02:26.229Z</time></trkpt><trkpt lat="41.9906342" lon="13.8004669"><ele>573.0</ele><time>2026-05-03T14:02:32.215Z</time></trkpt><trkpt lat="41.9906973" lon="13.8005102"><ele>573.0</ele><time>2026-05-03T14:02:41.22Z</time></trkpt><trkpt lat="41.9907468" lon="13.8004479"><ele>573.0</ele><time>2026-05-03T14:02:56.176Z</time></trkpt><trkpt lat="41.9908066" lon="13.8004174"><ele>573.0</ele><time>2026-05-03T14:03:44.217Z</time></trkpt><trkpt lat="41.9908576" lon="13.8004747"><ele>570.7142857142858</ele><time>2026-05-03T14:03:51.29Z</time></trkpt><trkpt lat="41.990846" lon="13.8005644"><ele>568.4285714285714</ele><time>2026-05-03T14:03:55.216Z</time></trkpt><trkpt lat="41.9908865" lon="13.8006399"><ele>566.1428571428571</ele><time>2026-05-03T14:04:03.216Z</time></trkpt><trkpt lat="41.9909147" lon="13.8007376"><ele>563.8571428571429</ele><time>2026-05-03T14:04:16.193Z</time></trkpt><trkpt lat="41.9908809" lon="13.8006579"><ele>561.5714285714286</ele><time>2026-05-03T14:06:14.214Z</time></trkpt><trkpt lat="41.9909277" lon="13.8007243"><ele>559.2857142857143</ele><time>2026-05-03T14:06:48.217Z</time></trkpt><trkpt lat="41.9908622" lon="13.8007231"><ele>557.0</ele><time>2026-05-03T14:06:55.217Z</time></trkpt><trkpt lat="41.9908593" lon="13.8006379"><ele>557.0</ele><time>2026-05-03T14:10:30.214Z</time></trkpt><trkpt lat="41.990961" lon="13.8006377"><ele>557.0</ele><time>2026-05-03T14:11:58.217Z</time></trkpt><trkpt lat="41.9910803" lon="13.8006576"><ele>557.0</ele><time>2026-05-03T14:12:12.216Z</time></trkpt><trkpt lat="41.9911431" lon="13.8006872"><ele>557.0</ele><time>2026-05-03T14:12:21.253Z</time></trkpt><trkpt lat="41.9912065" lon="13.800733"><ele>557.0</ele><time>2026-05-03T14:12:37.213Z</time></trkpt><trkpt lat="41.9912676" lon="13.8007728"><ele>557.0</ele><time>2026-05-03T14:12:44.215Z</time></trkpt><trkpt lat="41.9913268" lon="13.8008283"><ele>557.0</ele><time>2026-05-03T14:12:52.169Z</time></trkpt><trkpt lat="41.991373" lon="13.8008871"><ele>557.0</ele><time>2026-05-03T14:12:58.215Z</time></trkpt><trkpt lat="41.9914069" lon="13.8009607"><ele>557.0</ele><time>2026-05-03T14:13:05.221Z</time></trkpt><trkpt lat="41.9914767" lon="13.8009661"><ele>557.0</ele><time>2026-05-03T14:13:12.215Z</time></trkpt><trkpt lat="41.9915332" lon="13.8009217"><ele>557.0</ele><time>2026-05-03T14:13:19.213Z</time></trkpt><trkpt lat="41.9915869" lon="13.8008772"><ele>557.0</ele><time>2026-05-03T14:13:27.155Z</time></trkpt><trkpt lat="41.9916515" lon="13.8008487"><ele>557.0</ele><time>2026-05-03T14:13:34.213Z</time></trkpt><trkpt lat="41.9917157" lon="13.8008585"><ele>558.4285714285714</ele><time>2026-05-03T14:13:41.175Z</time></trkpt><trkpt lat="41.9917683" lon="13.8009085"><ele>559.8571428571429</ele><time>2026-05-03T14:13:47.214Z</time></trkpt><trkpt lat="41.991827" lon="13.8009598"><ele>561.2857142857142</ele><time>2026-05-03T14:13:54.219Z</time></trkpt><trkpt lat="41.9918608" lon="13.8010343"><ele>562.7142857142858</ele><time>2026-05-03T14:14:02.167Z</time></trkpt><trkpt lat="41.9919199" lon="13.8010737"><ele>564.1428571428571</ele><time>2026-05-03T14:14:09.21Z</time></trkpt><trkpt lat="41.9919768" lon="13.8011171"><ele>565.5714285714286</ele><time>2026-05-03T14:14:18.217Z</time></trkpt><trkpt lat="41.9920304" lon="13.8011667"><ele>567.0</ele><time>2026-05-03T14:14:26.217Z</time></trkpt><trkpt lat="41.9920863" lon="13.8012213"><ele>564.1428571428571</ele><time>2026-05-03T14:14:32.249Z</time></trkpt><trkpt lat="41.9921325" lon="13.8012917"><ele>561.2857142857142</ele><time>2026-05-03T14:14:41.218Z</time></trkpt><trkpt lat="41.9920772" lon="13.8012283"><ele>558.4285714285714</ele><time>2026-05-03T14:15:02.231Z</time></trkpt><trkpt lat="41.9921375" lon="13.8012851"><ele>555.5714285714286</ele><time>2026-05-03T14:16:18.232Z</time></trkpt><trkpt lat="41.9921485" lon="13.8013735"><ele>552.7142857142857</ele><time>2026-05-03T14:16:23.215Z</time></trkpt><trkpt lat="41.9921205" lon="13.801455"><ele>549.8571428571429</ele><time>2026-05-03T14:16:29.213Z</time></trkpt><trkpt lat="41.9921004" lon="13.8015452"><ele>547.0</ele><time>2026-05-03T14:16:36.213Z</time></trkpt><trkpt lat="41.9920687" lon="13.80163"><ele>547.0</ele><time>2026-05-03T14:16:44.168Z</time></trkpt><trkpt lat="41.9920473" lon="13.8017189"><ele>547.0</ele><time>2026-05-03T14:16:51.171Z</time></trkpt><trkpt lat="41.9920014" lon="13.8018011"><ele>547.0</ele><time>2026-05-03T14:17:12.214Z</time></trkpt><trkpt lat="41.9919817" lon="13.801895"><ele>547.0</ele><time>2026-05-03T14:17:18.214Z</time></trkpt><trkpt lat="41.9920162" lon="13.801969"><ele>547.0</ele><time>2026-05-03T14:17:23.251Z</time></trkpt><trkpt lat="41.9920513" lon="13.8020465"><ele>547.0</ele><time>2026-05-03T14:17:29.198Z</time></trkpt><trkpt lat="41.9920743" lon="13.8021254"><ele>547.0</ele><time>2026-05-03T14:17:35.216Z</time></trkpt><trkpt lat="41.9920974" lon="13.8022119"><ele>547.1428571428571</ele><time>2026-05-03T14:17:58.213Z</time></trkpt><trkpt lat="41.9920896" lon="13.8023103"><ele>547.2857142857142</ele><time>2026-05-03T14:18:05.211Z</time></trkpt><trkpt lat="41.9920204" lon="13.8023237"><ele>547.4285714285714</ele><time>2026-05-03T14:18:12.231Z</time></trkpt><trkpt lat="41.9919535" lon="13.8023037"><ele>547.5714285714286</ele><time>2026-05-03T14:18:18.153Z</time></trkpt><trkpt lat="41.9918914" lon="13.8022794"><ele>547.7142857142858</ele><time>2026-05-03T14:18:43.195Z</time></trkpt><trkpt lat="41.9918334" lon="13.8022329"><ele>547.8571428571429</ele><time>2026-05-03T14:18:49.212Z</time></trkpt><trkpt lat="41.991763" lon="13.8022544"><ele>548.0</ele><time>2026-05-03T14:19:00.223Z</time></trkpt><trkpt lat="41.991701" lon="13.8022332"><ele>545.0000000000001</ele><time>2026-05-03T14:19:05.252Z</time></trkpt><trkpt lat="41.9916385" lon="13.8022746"><ele>542.0</ele><time>2026-05-03T14:19:11.217Z</time></trkpt><trkpt lat="41.9915724" lon="13.8023074"><ele>539.0</ele><time>2026-05-03T14:19:18.248Z</time></trkpt><trkpt lat="41.9915125" lon="13.8023462"><ele>536.0</ele><time>2026-05-03T14:19:25.217Z</time></trkpt><trkpt lat="41.9914995" lon="13.8024395"><ele>533.0</ele><time>2026-05-03T14:21:00.216Z</time></trkpt><trkpt lat="41.9915036" lon="13.8025275"><ele>530.0000000000001</ele><time>2026-05-03T14:21:07.217Z</time></trkpt><trkpt lat="41.9914991" lon="13.8026194"><ele>527.0</ele><time>2026-05-03T14:21:14.214Z</time></trkpt><trkpt lat="41.9914872" lon="13.8027179"><ele>526.2857142857143</ele><time>2026-05-03T14:21:24.217Z</time></trkpt><trkpt lat="41.9914858" lon="13.8028165"><ele>525.5714285714286</ele><time>2026-05-03T14:21:31.216Z</time></trkpt><trkpt lat="41.9914792" lon="13.8029107"><ele>524.8571428571429</ele><time>2026-05-03T14:21:37.216Z</time></trkpt><trkpt lat="41.9914678" lon="13.8029946"><ele>524.1428571428571</ele><time>2026-05-03T14:21:43.214Z</time></trkpt><trkpt lat="41.9914608" lon="13.8030845"><ele>523.4285714285714</ele><time>2026-05-03T14:21:50.212Z</time></trkpt><trkpt lat="41.9914434" lon="13.8031742"><ele>522.7142857142858</ele><time>2026-05-03T14:22:09.21Z</time></trkpt><trkpt lat="41.991483" lon="13.8032457"><ele>522.0</ele><time>2026-05-03T14:23:25.273Z</time></trkpt><trkpt lat="41.9915098" lon="13.8033328"><ele>522.0</ele><time>2026-05-03T14:23:41.225Z</time></trkpt><trkpt lat="41.991481" lon="13.803416"><ele>522.0</ele><time>2026-05-03T14:23:46.129Z</time></trkpt><trkpt lat="41.9914503" lon="13.8034987"><ele>522.0</ele><time>2026-05-03T14:23:52.074Z</time></trkpt><trkpt lat="41.9914569" lon="13.8034111"><ele>522.0</ele><time>2026-05-03T14:24:18.218Z</time></trkpt><trkpt lat="41.9914377" lon="13.8033273"><ele>522.0</ele><time>2026-05-03T14:24:23.177Z</time></trkpt><trkpt lat="41.9914388" lon="13.8032402"><ele>522.0</ele><time>2026-05-03T14:24:29.228Z</time></trkpt><trkpt lat="41.9913887" lon="13.8031759"><ele>522.0</ele><time>2026-05-03T14:24:34.218Z</time></trkpt><trkpt lat="41.9913343" lon="13.8032221"><ele>522.0</ele><time>2026-05-03T14:24:41.215Z</time></trkpt><trkpt lat="41.9913061" lon="13.8033026"><ele>522.0</ele><time>2026-05-03T14:24:47.255Z</time></trkpt><trkpt lat="41.9912857" lon="13.8033857"><ele>522.0</ele><time>2026-05-03T14:24:54.215Z</time></trkpt><trkpt lat="41.9912745" lon="13.8034736"><ele>522.0</ele><time>2026-05-03T14:25:02.228Z</time></trkpt><trkpt lat="41.9912852" lon="13.803571"><ele>522.0</ele><time>2026-05-03T14:25:09.213Z</time></trkpt><trkpt lat="41.9913006" lon="13.8036654"><ele>522.0</ele><time>2026-05-03T14:25:20.214Z</time></trkpt><trkpt lat="41.9913058" lon="13.8037594"><ele>522.0</ele><time>2026-05-03T14:25:26.216Z</time></trkpt><trkpt lat="41.9913032" lon="13.8038573"><ele>522.2857142857143</ele><time>2026-05-03T14:25:33.272Z</time></trkpt><trkpt lat="41.9912835" lon="13.8039484"><ele>522.5714285714286</ele><time>2026-05-03T14:25:40.212Z</time></trkpt><trkpt lat="41.991295" lon="13.8040344"><ele>522.8571428571429</ele><time>2026-05-03T14:25:46.212Z</time></trkpt><trkpt lat="41.9912724" lon="13.8041283"><ele>523.1428571428571</ele><time>2026-05-03T14:25:53.237Z</time></trkpt><trkpt lat="41.9912396" lon="13.804204"><ele>523.4285714285714</ele><time>2026-05-03T14:25:59.189Z</time></trkpt><trkpt lat="41.9912463" lon="13.8042928"><ele>523.7142857142858</ele><time>2026-05-03T14:26:07.223Z</time></trkpt><trkpt lat="41.9912347" lon="13.8043835"><ele>524.0</ele><time>2026-05-03T14:26:40.269Z</time></trkpt><trkpt lat="41.9911827" lon="13.8044462"><ele>522.1428571428571</ele><time>2026-05-03T14:26:46.259Z</time></trkpt><trkpt lat="41.9911281" lon="13.804506"><ele>520.2857142857143</ele><time>2026-05-03T14:26:53.215Z</time></trkpt><trkpt lat="41.9911009" lon="13.8045944"><ele>518.4285714285714</ele><time>2026-05-03T14:27:00.244Z</time></trkpt><trkpt lat="41.9910445" lon="13.8046436"><ele>516.5714285714286</ele><time>2026-05-03T14:27:07.218Z</time></trkpt><trkpt lat="41.9910076" lon="13.8047211"><ele>514.7142857142858</ele><time>2026-05-03T14:27:14.228Z</time></trkpt><trkpt lat="41.9910059" lon="13.8048177"><ele>512.8571428571429</ele><time>2026-05-03T14:27:21.213Z</time></trkpt><trkpt lat="41.9909868" lon="13.8049099"><ele>511.0</ele><time>2026-05-03T14:27:28.209Z</time></trkpt><trkpt lat="41.99098" lon="13.8050027"><ele>511.0</ele><time>2026-05-03T14:27:35.229Z</time></trkpt><trkpt lat="41.991029" lon="13.8050733"><ele>511.0</ele><time>2026-05-03T14:28:14.115Z</time></trkpt><trkpt lat="41.9910785" lon="13.8051422"><ele>511.0</ele><time>2026-05-03T14:28:37.232Z</time></trkpt><trkpt lat="41.9911362" lon="13.805192"><ele>511.0</ele><time>2026-05-03T14:28:45.214Z</time></trkpt><trkpt lat="41.9911827" lon="13.8052583"><ele>511.0</ele><time>2026-05-03T14:28:52.255Z</time></trkpt><trkpt lat="41.991241" lon="13.8052981"><ele>511.0</ele><time>2026-05-03T14:28:59.212Z</time></trkpt><trkpt lat="41.9912979" lon="13.8053363"><ele>511.0</ele><time>2026-05-03T14:29:06.177Z</time></trkpt><trkpt lat="41.9913579" lon="13.8053687"><ele>510.8571428571429</ele><time>2026-05-03T14:29:12.247Z</time></trkpt><trkpt lat="41.99142" lon="13.8053982"><ele>510.7142857142857</ele><time>2026-05-03T14:29:18.214Z</time></trkpt><trkpt lat="41.9914858" lon="13.8054041"><ele>510.57142857142856</ele><time>2026-05-03T14:29:24.221Z</time></trkpt><trkpt lat="41.9915026" lon="13.8053138"><ele>510.42857142857144</ele><time>2026-05-03T14:29:31.251Z</time></trkpt><trkpt lat="41.9914893" lon="13.8054159"><ele>510.28571428571433</ele><time>2026-05-03T14:30:35.213Z</time></trkpt><trkpt lat="41.9915134" lon="13.8055042"><ele>510.14285714285717</ele><time>2026-05-03T14:30:42.231Z</time></trkpt><trkpt lat="41.991552" lon="13.8055797"><ele>510.0</ele><time>2026-05-03T14:30:47.212Z</time></trkpt><trkpt lat="41.9915921" lon="13.805654"><ele>510.0</ele><time>2026-05-03T14:30:52.214Z</time></trkpt><trkpt lat="41.9916312" lon="13.805723"><ele>510.00000000000006</ele><time>2026-05-03T14:30:57.226Z</time></trkpt><trkpt lat="41.9916256" lon="13.8058157"><ele>510.0</ele><time>2026-05-03T14:31:20.214Z</time></trkpt><trkpt lat="41.9916363" lon="13.8059012"><ele>510.0</ele><time>2026-05-03T14:31:25.215Z</time></trkpt><trkpt lat="41.9916615" lon="13.8059944"><ele>510.00000000000006</ele><time>2026-05-03T14:31:31.212Z</time></trkpt><trkpt lat="41.9916858" lon="13.806075"><ele>510.0</ele><time>2026-05-03T14:31:37.213Z</time></trkpt><trkpt lat="41.991695" lon="13.8061738"><ele>510.0</ele><time>2026-05-03T14:31:43.217Z</time></trkpt><trkpt lat="41.9916921" lon="13.8062597"><ele>509.8571428571429</ele><time>2026-05-03T14:31:49.247Z</time></trkpt><trkpt lat="41.9916705" lon="13.8063434"><ele>509.7142857142858</ele><time>2026-05-03T14:31:55.217Z</time></trkpt><trkpt lat="41.9916706" lon="13.8064289"><ele>509.57142857142856</ele><time>2026-05-03T14:32:01.22Z</time></trkpt><trkpt lat="41.9917053" lon="13.8065158"><ele>509.42857142857144</ele><time>2026-05-03T14:32:09.212Z</time></trkpt><trkpt lat="41.9917155" lon="13.8066017"><ele>509.2857142857143</ele><time>2026-05-03T14:32:40.092Z</time></trkpt><trkpt lat="41.9916972" lon="13.8066953"><ele>509.1428571428571</ele><time>2026-05-03T14:32:46.169Z</time></trkpt><trkpt lat="41.9916991" lon="13.8067838"><ele>508.99999999999994</ele><time>2026-05-03T14:32:53.237Z</time></trkpt><trkpt lat="41.9916754" lon="13.8068701"><ele>510.42857142857133</ele><time>2026-05-03T14:33:04.214Z</time></trkpt><trkpt lat="41.9916637" lon="13.8069627"><ele>511.85714285714283</ele><time>2026-05-03T14:33:11.245Z</time></trkpt><trkpt lat="41.9916508" lon="13.8070489"><ele>513.2857142857142</ele><time>2026-05-03T14:33:18.22Z</time></trkpt><trkpt lat="41.9916592" lon="13.8071398"><ele>514.7142857142857</ele><time>2026-05-03T14:33:26.212Z</time></trkpt><trkpt lat="41.9917062" lon="13.8072107"><ele>516.1428571428571</ele><time>2026-05-03T14:33:34.13Z</time></trkpt><trkpt lat="41.9917629" lon="13.807264"><ele>517.5714285714286</ele><time>2026-05-03T14:33:41.265Z</time></trkpt><trkpt lat="41.9917817" lon="13.8073524"><ele>519.0</ele><time>2026-05-03T14:33:48.212Z</time></trkpt><trkpt lat="41.9917582" lon="13.8072575"><ele>519.0</ele><time>2026-05-03T14:34:12.217Z</time></trkpt><trkpt lat="41.9917217" lon="13.8071741"><ele>519.0</ele><time>2026-05-03T14:34:21.213Z</time></trkpt><trkpt lat="41.9916977" lon="13.8070783"><ele>519.0</ele><time>2026-05-03T14:34:28.215Z</time></trkpt><trkpt lat="41.9916764" lon="13.806988"><ele>519.0</ele><time>2026-05-03T14:34:36.208Z</time></trkpt><trkpt lat="41.9916866" lon="13.8069039"><ele>519.0</ele><time>2026-05-03T14:34:44.211Z</time></trkpt><trkpt lat="41.9917074" lon="13.8068193"><ele>519.0</ele><time>2026-05-03T14:34:51.215Z</time></trkpt><trkpt lat="41.9916845" lon="13.8067361"><ele>519.0</ele><time>2026-05-03T14:34:58.215Z</time></trkpt><trkpt lat="41.9916623" lon="13.8066546"><ele>518.7142857142857</ele><time>2026-05-03T14:35:05.253Z</time></trkpt><trkpt lat="41.991633" lon="13.8065781"><ele>518.4285714285713</ele><time>2026-05-03T14:35:13.211Z</time></trkpt><trkpt lat="41.9916994" lon="13.8065763"><ele>518.1428571428571</ele><time>2026-05-03T14:35:31.211Z</time></trkpt><trkpt lat="41.9917605" lon="13.8065297"><ele>517.8571428571429</ele><time>2026-05-03T14:35:38.238Z</time></trkpt><trkpt lat="41.9918082" lon="13.8064641"><ele>517.5714285714287</ele><time>2026-05-03T14:35:44.213Z</time></trkpt><trkpt lat="41.9918411" lon="13.8063826"><ele>517.2857142857143</ele><time>2026-05-03T14:35:50.117Z</time></trkpt><trkpt lat="41.9918516" lon="13.8062834"><ele>517.0</ele><time>2026-05-03T14:35:55.277Z</time></trkpt><trkpt lat="41.9918219" lon="13.8061875"><ele>517.0</ele><time>2026-05-03T14:36:01.212Z</time></trkpt><trkpt lat="41.9917653" lon="13.8061303"><ele>517.0</ele><time>2026-05-03T14:36:05.213Z</time></trkpt><trkpt lat="41.991698" lon="13.8060782"><ele>517.0</ele><time>2026-05-03T14:36:09.226Z</time></trkpt><trkpt lat="41.9916333" lon="13.8060273"><ele>517.0</ele><time>2026-05-03T14:36:13.249Z</time></trkpt><trkpt lat="41.9915806" lon="13.8059601"><ele>517.0</ele><time>2026-05-03T14:36:18.218Z</time></trkpt><trkpt lat="41.9915505" lon="13.8058684"><ele>517.0</ele><time>2026-05-03T14:36:24.215Z</time></trkpt><trkpt lat="41.9915252" lon="13.8057892"><ele>517.0</ele><time>2026-05-03T14:36:30.252Z</time></trkpt><trkpt lat="41.9915788" lon="13.8057347"><ele>516.0</ele><time>2026-05-03T14:36:37.209Z</time></trkpt><trkpt lat="41.9916419" lon="13.8057268"><ele>515.0</ele><time>2026-05-03T14:36:43.23Z</time></trkpt><trkpt lat="41.9917127" lon="13.8057561"><ele>514.0</ele><time>2026-05-03T14:36:49.172Z</time></trkpt><trkpt lat="41.9917703" lon="13.8057978"><ele>513.0</ele><time>2026-05-03T14:36:58.222Z</time></trkpt><trkpt lat="41.9918406" lon="13.8057531"><ele>512.0</ele><time>2026-05-03T14:37:08.212Z</time></trkpt><trkpt lat="41.9918991" lon="13.8057063"><ele>511.0</ele><time>2026-05-03T14:37:14.21Z</time></trkpt><trkpt lat="41.9919608" lon="13.8056549"><ele>510.0</ele><time>2026-05-03T14:37:21.211Z</time></trkpt><trkpt lat="41.9920262" lon="13.8056205"><ele>510.0</ele><time>2026-05-03T14:37:26.218Z</time></trkpt><trkpt lat="41.9920695" lon="13.8055493"><ele>510.00000000000006</ele><time>2026-05-03T14:37:32.227Z</time></trkpt><trkpt lat="41.9921294" lon="13.8054874"><ele>510.0</ele><time>2026-05-03T14:37:49.228Z</time></trkpt><trkpt lat="41.9921916" lon="13.8055069"><ele>510.0</ele><time>2026-05-03T14:37:53.216Z</time></trkpt><trkpt lat="41.9922575" lon="13.8055387"><ele>510.00000000000006</ele><time>2026-05-03T14:37:58.211Z</time></trkpt><trkpt lat="41.9922865" lon="13.8054591"><ele>510.0</ele><time>2026-05-03T14:38:05.226Z</time></trkpt><trkpt lat="41.9923339" lon="13.805391"><ele>510.0</ele><time>2026-05-03T14:38:12.272Z</time></trkpt><trkpt lat="41.9924046" lon="13.8054252"><ele>510.0</ele><time>2026-05-03T14:38:18.211Z</time></trkpt><trkpt lat="41.9924569" lon="13.8054741"><ele>510.00000000000006</ele><time>2026-05-03T14:38:23.233Z</time></trkpt><trkpt lat="41.9924791" lon="13.8055562"><ele>510.0</ele><time>2026-05-03T14:38:33.213Z</time></trkpt><trkpt lat="41.9925459" lon="13.8055201"><ele>510.0</ele><time>2026-05-03T14:38:52.273Z</time></trkpt><trkpt lat="41.9925925" lon="13.8055807"><ele>510.00000000000006</ele><time>2026-05-03T14:39:10.194Z</time></trkpt><trkpt lat="41.9926579" lon="13.8056189"><ele>510.0</ele><time>2026-05-03T14:39:14.241Z</time></trkpt><trkpt lat="41.9927238" lon="13.8056463"><ele>510.0</ele><time>2026-05-03T14:39:19.215Z</time></trkpt><trkpt lat="41.9927787" lon="13.8056911"><ele>510.8571428571429</ele><time>2026-05-03T14:39:24.196Z</time></trkpt><trkpt lat="41.9928154" lon="13.8057608"><ele>511.7142857142858</ele><time>2026-05-03T14:39:28.17Z</time></trkpt><trkpt lat="41.9928582" lon="13.8058271"><ele>512.5714285714286</ele><time>2026-05-03T14:39:33.254Z</time></trkpt><trkpt lat="41.9929235" lon="13.8058707"><ele>513.4285714285714</ele><time>2026-05-03T14:39:53.213Z</time></trkpt><trkpt lat="41.9929938" lon="13.8059086"><ele>514.2857142857142</ele><time>2026-05-03T14:39:58.133Z</time></trkpt><trkpt lat="41.9930568" lon="13.8059272"><ele>515.1428571428571</ele><time>2026-05-03T14:40:04.242Z</time></trkpt><trkpt lat="41.9931236" lon="13.8059397"><ele>516.0</ele><time>2026-05-03T14:40:10.211Z</time></trkpt><trkpt lat="41.9931867" lon="13.8059544"><ele>515.9999999999999</ele><time>2026-05-03T14:40:16.214Z</time></trkpt><trkpt lat="41.9932592" lon="13.8059673"><ele>516.0</ele><time>2026-05-03T14:40:28.171Z</time></trkpt><trkpt lat="41.9933191" lon="13.8060182"><ele>516.0</ele><time>2026-05-03T14:40:34.223Z</time></trkpt><trkpt lat="41.9933827" lon="13.8060316"><ele>516.0</ele><time>2026-05-03T14:40:40.211Z</time></trkpt><trkpt lat="41.9934423" lon="13.8060697"><ele>516.0</ele><time>2026-05-03T14:40:45.212Z</time></trkpt><trkpt lat="41.993504" lon="13.8060868"><ele>515.9999999999999</ele><time>2026-05-03T14:40:50.219Z</time></trkpt><trkpt lat="41.9935705" lon="13.8060992"><ele>516.0</ele><time>2026-05-03T14:41:03.192Z</time></trkpt><trkpt lat="41.993637" lon="13.8061217"><ele>514.7142857142857</ele><time>2026-05-03T14:41:09.146Z</time></trkpt><trkpt lat="41.993701" lon="13.806149"><ele>513.4285714285714</ele><time>2026-05-03T14:41:16.213Z</time></trkpt><trkpt lat="41.993772" lon="13.8061515"><ele>512.1428571428571</ele><time>2026-05-03T14:42:16.212Z</time></trkpt><trkpt lat="41.9938414" lon="13.8061775"><ele>510.85714285714283</ele><time>2026-05-03T14:42:22.22Z</time></trkpt><trkpt lat="41.9939111" lon="13.806208"><ele>509.57142857142856</ele><time>2026-05-03T14:42:29.21Z</time></trkpt><trkpt lat="41.9939779" lon="13.8062201"><ele>508.2857142857143</ele><time>2026-05-03T14:42:35.194Z</time></trkpt><trkpt lat="41.9940429" lon="13.806222"><ele>507.0</ele><time>2026-05-03T14:42:41.236Z</time></trkpt><trkpt lat="41.9941066" lon="13.8062461"><ele>507.0</ele><time>2026-05-03T14:42:46.936Z</time></trkpt></trkseg></trk></gpx>